Darstellungsparameter: Aktuell verwendete Einstellungen:
Skalierung der Graphiken ... ?
xyx+y,   Skalierungsfaktor:      Skalierung: Modus: x, Faktor: 1
Darstellungszeitraum ... ?
Vom - - bis: - -   Zeitraum: 24.05.2014 - 30.05.2014
Min/Max/Avg-Anzeige ... ?
Zeige MMA aktuell
Zeige MMA Monat
Zeige MMA alles
Zeige --A aktuell
Zeige --A Monat
Zeige --A alles
Keine MMA-Anzeige
MMA:
Keine MMA-Graphiken
MMA-Basis: 24.05.2014 - 30.05.2014
Quicknavigation für Darstellung... ?
Tage:      1T, 2T, 3T, 5T -1T -2T -3T -5T +1T +2T +3T +5T
Wochen: 1W, 2W, 3W -1W -2W -3W +1W +2W +3W
Monate: 1M, 3M, 6M -1M -3M -6M +1M +3M +6M
Jahre:    1J, 3J, 5J, 10J -1J -3J -5J -10J +1J +3J +5J +10J
Nutze für die Darstellung ... ?
Originaldaten oder Mittelwerte auf ...
Stundenbasis Tagesbasis Wochenbasis
Monatsbasis Jahresbasis      Datenbasis: Original-Daten
Darstellen als:
Statistik (Auto) Statistik J:M      Darstellung:
Zur Graphik,    zurück zur Übersicht aller Sensoren.
 
Tabellarische Datenbersicht: ?
 
Sensor: Nr:Datum:Temp:Feuchte:Taupunkt:
Aussen-T/F 1 24-05-2014 00:00:00 13.1 C 94 % 12.16 C
2 24-05-2014 00:05:00 13.1 C 94 % 12.16 C
3 24-05-2014 00:10:00 12.9 C 94 % 11.96 C
4 24-05-2014 00:15:00 12.9 C 94 % 11.96 C
5 24-05-2014 00:20:00 12.9 C 94 % 11.96 C
6 24-05-2014 00:25:00 12.9 C 94 % 11.96 C
7 24-05-2014 00:30:00 12.8 C 95 % 12.02 C
8 24-05-2014 00:35:00 12.8 C 95 % 12.02 C
9 24-05-2014 00:40:00 12.7 C 95 % 11.92 C
10 24-05-2014 00:45:00 12.7 C 94 % 11.76 C
11 24-05-2014 00:50:00 12.7 C 95 % 11.92 C
12 24-05-2014 00:55:00 12.7 C 95 % 11.92 C
13 24-05-2014 01:00:00 12.6 C 95 % 11.82 C
14 24-05-2014 01:05:00 12.5 C 95 % 11.72 C
15 24-05-2014 01:10:00 12.4 C 95 % 11.62 C
16 24-05-2014 01:15:00 12.4 C 95 % 11.62 C
17 24-05-2014 01:20:00 12.4 C 95 % 11.62 C
18 24-05-2014 01:25:00 12.4 C 95 % 11.62 C
19 24-05-2014 01:30:00 12.4 C 95 % 11.62 C
20 24-05-2014 01:35:00 12.3 C 95 % 11.52 C
21 24-05-2014 01:40:00 12.2 C 95 % 11.42 C
22 24-05-2014 01:45:00 12.2 C 95 % 11.42 C
23 24-05-2014 01:50:00 12.1 C 95 % 11.32 C
24 24-05-2014 01:55:00 11.9 C 95 % 11.13 C
25 24-05-2014 02:00:00 11.8 C 95 % 11.03 C
Sensor: Nr:Datum:Temp:Feuchte:Taupunkt:
Aussen-T/F 26 24-05-2014 02:05:00 11.7 C 95 % 10.93 C
27 24-05-2014 02:10:00 11.7 C 95 % 10.93 C
28 24-05-2014 02:15:00 11.7 C 96 % 11.08 C
29 24-05-2014 02:20:00 11.7 C 96 % 11.08 C
30 24-05-2014 02:25:00 11.8 C 96 % 11.18 C
31 24-05-2014 02:30:00 11.8 C 96 % 11.18 C
32 24-05-2014 02:35:00 11.8 C 96 % 11.18 C
33 24-05-2014 02:40:00 11.8 C 96 % 11.18 C
34 24-05-2014 02:45:00 12 C 96 % 11.38 C
35 24-05-2014 02:50:00 12.3 C 97 % 11.84 C
36 24-05-2014 02:55:00 12.6 C 96 % 11.98 C
37 24-05-2014 03:00:00 12.8 C 96 % 12.18 C
38 24-05-2014 03:05:00 12.9 C 95 % 12.12 C
39 24-05-2014 03:10:00 13.1 C 93 % 11.99 C
40 24-05-2014 03:15:00 13.6 C 88 % 11.65 C
41 24-05-2014 03:20:00 13.9 C 86 % 11.6 C
42 24-05-2014 03:25:00 14.1 C 85 % 11.62 C
43 24-05-2014 03:30:00 14.1 C 85 % 11.62 C
44 24-05-2014 03:35:00 14.1 C 86 % 11.8 C
45 24-05-2014 03:40:00 14 C 85 % 11.52 C
46 24-05-2014 03:45:00 14.1 C 84 % 11.44 C
47 24-05-2014 03:50:00 14.1 C 84 % 11.44 C
48 24-05-2014 03:55:00 14.2 C 84 % 11.54 C
49 24-05-2014 04:00:00 14.2 C 83 % 11.36 C
50 24-05-2014 04:05:00 14.2 C 84 % 11.54 C
Sensor: Nr:Datum:Temp:Feuchte:Taupunkt:
Aussen-T/F 51 24-05-2014 04:10:00 14.1 C 83 % 11.26 C
52 24-05-2014 04:15:00 14.1 C 82 % 11.08 C
53 24-05-2014 04:20:00 14.1 C 82 % 11.08 C
54 24-05-2014 04:25:00 14.1 C 82 % 11.08 C
55 24-05-2014 04:30:00 14 C 82 % 10.98 C
56 24-05-2014 04:35:00 14 C 81 % 10.79 C
57 24-05-2014 04:40:00 13.9 C 82 % 10.88 C
58 24-05-2014 04:45:00 13.9 C 81 % 10.7 C
59 24-05-2014 04:50:00 13.8 C 82 % 10.78 C
60 24-05-2014 04:55:00 13.8 C 81 % 10.6 C
61 24-05-2014 05:00:00 13.7 C 81 % 10.5 C
62 24-05-2014 05:05:00 13.7 C 81 % 10.5 C
63 24-05-2014 05:10:00 13.7 C 81 % 10.5 C
64 24-05-2014 05:15:00 13.7 C 80 % 10.32 C
65 24-05-2014 05:20:00 13.7 C 81 % 10.5 C
66 24-05-2014 05:25:00 13.6 C 82 % 10.59 C
67 24-05-2014 05:30:00 13.5 C 82 % 10.49 C
68 24-05-2014 05:35:00 13.5 C 85 % 11.03 C
69 24-05-2014 05:40:00 13.3 C 87 % 11.18 C
70 24-05-2014 05:45:00 13.1 C 89 % 11.33 C
71 24-05-2014 05:50:00 12.7 C 91 % 11.27 C
72 24-05-2014 05:55:00 12.5 C 92 % 11.24 C
73 24-05-2014 06:00:00 12.3 C 93 % 11.2 C
74 24-05-2014 06:05:00 12.3 C 93 % 11.2 C
75 24-05-2014 06:10:00 12.2 C 93 % 11.1 C
Sensor: Nr:Datum:Temp:Feuchte:Taupunkt:
Aussen-T/F 76 24-05-2014 06:15:00 12.2 C 94 % 11.26 C
77 24-05-2014 06:20:00 12.1 C 94 % 11.16 C
78 24-05-2014 06:25:00 12.1 C 94 % 11.16 C
79 24-05-2014 06:30:00 12.2 C 95 % 11.42 C
80 24-05-2014 06:35:00 12.2 C 95 % 11.42 C
81 24-05-2014 06:40:00 12.2 C 95 % 11.42 C
82 24-05-2014 06:45:00 12.2 C 95 % 11.42 C
83 24-05-2014 06:50:00 12.2 C 95 % 11.42 C
84 24-05-2014 06:55:00 12.2 C 95 % 11.42 C
85 24-05-2014 07:00:00 12.1 C 95 % 11.32 C
86 24-05-2014 07:05:00 12.2 C 96 % 11.58 C
87 24-05-2014 07:10:00 12.2 C 96 % 11.58 C
88 24-05-2014 07:15:00 12.2 C 96 % 11.58 C
89 24-05-2014 07:20:00 12.2 C 96 % 11.58 C
90 24-05-2014 07:25:00 12.2 C 96 % 11.58 C
91 24-05-2014 07:30:00 12.1 C 96 % 11.48 C
92 24-05-2014 07:35:00 12.1 C 95 % 11.32 C
93 24-05-2014 07:40:00 12.1 C 95 % 11.32 C
94 24-05-2014 07:45:00 12.2 C 95 % 11.42 C
95 24-05-2014 07:50:00 12.2 C 95 % 11.42 C
96 24-05-2014 07:55:00 12.3 C 94 % 11.36 C
97 24-05-2014 08:00:00 12.4 C 95 % 11.62 C
98 24-05-2014 08:05:00 12.4 C 95 % 11.62 C
99 24-05-2014 08:10:00 12.5 C 95 % 11.72 C
100 24-05-2014 08:15:00 12.6 C 95 % 11.82 C
Sensor: Nr:Datum:Temp:Feuchte:Taupunkt:
Aussen-T/F 101 24-05-2014 08:20:00 12.6 C 95 % 11.82 C
102 24-05-2014 08:25:00 12.7 C 95 % 11.92 C
103 24-05-2014 08:30:00 12.7 C 95 % 11.92 C
104 24-05-2014 08:35:00 12.8 C 95 % 12.02 C
105 24-05-2014 08:40:00 12.8 C 95 % 12.02 C
106 24-05-2014 08:45:00 12.9 C 95 % 12.12 C
107 24-05-2014 08:50:00 12.9 C 95 % 12.12 C
108 24-05-2014 08:55:00 13 C 96 % 12.38 C
109 24-05-2014 09:00:00 13.2 C 96 % 12.58 C
110 24-05-2014 09:05:00 13.3 C 96 % 12.68 C
111 24-05-2014 09:10:00 13.3 C 96 % 12.68 C
112 24-05-2014 09:15:00 13.5 C 96 % 12.87 C
113 24-05-2014 09:20:00 13.6 C 95 % 12.81 C
114 24-05-2014 09:25:00 13.6 C 95 % 12.81 C
115 24-05-2014 09:30:00 13.6 C 95 % 12.81 C
116 24-05-2014 09:35:00 13.6 C 95 % 12.81 C
117 24-05-2014 09:40:00 13.7 C 96 % 13.07 C
118 24-05-2014 09:45:00 13.8 C 96 % 13.17 C
119 24-05-2014 09:50:00 14 C 96 % 13.37 C
120 24-05-2014 09:55:00 14.2 C 96 % 13.57 C
121 24-05-2014 10:00:00 14.3 C 96 % 13.67 C
122 24-05-2014 10:05:00 14.4 C 96 % 13.77 C
123 24-05-2014 10:10:00 14.4 C 94 % 13.45 C
124 24-05-2014 10:15:00 14.5 C 95 % 13.71 C
125 24-05-2014 10:20:00 14.7 C 94 % 13.74 C
Sensor: Nr:Datum:Temp:Feuchte:Taupunkt:
Aussen-T/F 126 24-05-2014 10:25:00 14.8 C 92 % 13.51 C
127 24-05-2014 10:30:00 14.9 C 91 % 13.44 C
128 24-05-2014 10:35:00 15 C 89 % 13.2 C
129 24-05-2014 10:40:00 15 C 89 % 13.2 C
130 24-05-2014 10:45:00 14.7 C 87 % 12.56 C
131 24-05-2014 10:50:00 14.4 C 89 % 12.61 C
132 24-05-2014 10:55:00 14.3 C 88 % 12.34 C
133 24-05-2014 11:00:00 14.3 C 89 % 12.51 C
134 24-05-2014 11:05:00 14.4 C 89 % 12.61 C
135 24-05-2014 11:10:00 14.6 C 89 % 12.81 C
136 24-05-2014 11:15:00 14.7 C 87 % 12.56 C
137 24-05-2014 11:20:00 14.6 C 86 % 12.29 C
138 24-05-2014 11:25:00 14.4 C 85 % 11.91 C
139 24-05-2014 11:30:00 14.3 C 86 % 11.99 C
140 24-05-2014 11:35:00 14.3 C 85 % 11.81 C
141 24-05-2014 11:40:00 14.6 C 86 % 12.29 C
142 24-05-2014 11:45:00 14.9 C 85 % 12.4 C
143 24-05-2014 11:50:00 15.1 C 81 % 11.87 C
144 24-05-2014 11:55:00 14.9 C 80 % 11.48 C
145 24-05-2014 12:00:00 14.8 C 79 % 11.2 C
146 24-05-2014 12:05:00 14.6 C 78 % 10.81 C
147 24-05-2014 12:10:00 14.4 C 81 % 11.18 C
148 24-05-2014 12:15:00 14.4 C 81 % 11.18 C
149 24-05-2014 12:20:00 14.6 C 82 % 11.56 C
150 24-05-2014 12:25:00 14.7 C 82 % 11.66 C
Sensor: Nr:Datum:Temp:Feuchte:Taupunkt:
Aussen-T/F 151 24-05-2014 12:30:00 14.9 C 82 % 11.86 C
152 24-05-2014 12:35:00 15.2 C 80 % 11.78 C
153 24-05-2014 12:40:00 15.7 C 81 % 12.45 C
154 24-05-2014 12:45:00 16.3 C 79 % 12.65 C
155 24-05-2014 12:50:00 16.3 C 76 % 12.07 C
156 24-05-2014 12:55:00 16.3 C 78 % 12.46 C
157 24-05-2014 13:00:00 16.4 C 76 % 12.16 C
158 24-05-2014 13:05:00 16.4 C 75 % 11.96 C
159 24-05-2014 13:10:00 16.6 C 76 % 12.36 C
160 24-05-2014 13:15:00 16.7 C 75 % 12.25 C
161 24-05-2014 13:20:00 16.7 C 75 % 12.25 C
162 24-05-2014 13:25:00 16.9 C 74 % 12.24 C
163 24-05-2014 13:30:00 17.2 C 75 % 12.73 C
164 24-05-2014 13:35:00 17.4 C 72 % 12.3 C
165 24-05-2014 13:40:00 17.5 C 72 % 12.4 C
166 24-05-2014 13:45:00 17.5 C 70 % 11.97 C
167 24-05-2014 13:50:00 17.4 C 70 % 11.88 C
168 24-05-2014 13:55:00 17.4 C 70 % 11.88 C
169 24-05-2014 14:00:00 17.4 C 70 % 11.88 C
170 24-05-2014 14:05:00 17.4 C 69 % 11.66 C
171 24-05-2014 14:10:00 17.4 C 69 % 11.66 C
172 24-05-2014 14:15:00 17.4 C 69 % 11.66 C
173 24-05-2014 14:20:00 17.4 C 70 % 11.88 C
174 24-05-2014 14:25:00 17.6 C 68 % 11.63 C
175 24-05-2014 14:30:00 18 C 65 % 11.33 C
Sensor: Nr:Datum:Temp:Feuchte:Taupunkt:
Aussen-T/F 176 24-05-2014 14:35:00 18.1 C 65 % 11.42 C
177 24-05-2014 14:40:00 18.1 C 65 % 11.42 C
178 24-05-2014 14:45:00 18.5 C 65 % 11.8 C
179 24-05-2014 14:50:00 18.7 C 60 % 10.78 C
180 24-05-2014 14:55:00 18.3 C 62 % 10.9 C
181 24-05-2014 15:00:00 18.3 C 63 % 11.14 C
182 24-05-2014 15:05:00 18.5 C 62 % 11.09 C
183 24-05-2014 15:10:00 18.5 C 62 % 11.09 C
184 24-05-2014 15:15:00 18.5 C 63 % 11.33 C
185 24-05-2014 15:20:00 18.8 C 60 % 10.88 C
186 24-05-2014 15:25:00 19.1 C 61 % 11.41 C
187 24-05-2014 15:30:00 19.4 C 56 % 10.4 C
188 24-05-2014 15:35:00 19.6 C 58 % 11.12 C
189 24-05-2014 15:40:00 19.7 C 58 % 11.21 C
190 24-05-2014 15:45:00 19.7 C 56 % 10.68 C
191 24-05-2014 15:50:00 19.4 C 58 % 10.93 C
192 24-05-2014 15:55:00 19.1 C 58 % 10.65 C
193 24-05-2014 16:00:00 18.7 C 60 % 10.78 C
194 24-05-2014 16:05:00 18.4 C 60 % 10.5 C
195 24-05-2014 16:10:00 18.7 C 58 % 10.28 C
196 24-05-2014 16:15:00 18.3 C 59 % 10.16 C
197 24-05-2014 16:20:00 18.1 C 63 % 10.95 C
198 24-05-2014 16:25:00 18.3 C 61 % 10.66 C
199 24-05-2014 16:30:00 18.6 C 59 % 10.44 C
200 24-05-2014 16:35:00 19.1 C 58 % 10.65 C
Sensor: Nr:Datum:Temp:Feuchte:Taupunkt:
Aussen-T/F 201 24-05-2014 16:40:00 19.1 C 59 % 10.91 C
202 24-05-2014 16:45:00 19.1 C 59 % 10.91 C
203 24-05-2014 16:50:00 18.8 C 56 % 9.84 C
204 24-05-2014 16:55:00 18.8 C 59 % 10.63 C
205 24-05-2014 17:00:00 19.3 C 59 % 11.09 C
206 24-05-2014 17:05:00 20 C 54 % 10.42 C
207 24-05-2014 17:10:00 19.8 C 54 % 10.23 C
208 24-05-2014 17:15:00 19.4 C 53 % 9.58 C
209 24-05-2014 17:20:00 19.2 C 53 % 9.4 C
210 24-05-2014 17:25:00 19.2 C 53 % 9.4 C
211 24-05-2014 17:30:00 19.3 C 54 % 9.77 C
212 24-05-2014 17:35:00 19.5 C 52 % 9.39 C
213 24-05-2014 17:40:00 19.6 C 52 % 9.48 C
214 24-05-2014 17:45:00 19.7 C 52 % 9.58 C
215 24-05-2014 17:50:00 19.8 C 53 % 9.95 C
216 24-05-2014 17:55:00 20.1 C 52 % 9.94 C
217 24-05-2014 18:00:00 19.9 C 49 % 8.88 C
218 24-05-2014 18:05:00 19.4 C 49 % 8.42 C
219 24-05-2014 18:10:00 19.4 C 51 % 9.01 C
220 24-05-2014 18:15:00 19.8 C 49 % 8.79 C
221 24-05-2014 18:20:00 19.6 C 49 % 8.6 C
222 24-05-2014 18:25:00 19 C 49 % 8.05 C
223 24-05-2014 18:30:00 18.6 C 54 % 9.12 C
224 24-05-2014 18:35:00 18.3 C 55 % 9.11 C
225 24-05-2014 18:40:00 18 C 59 % 9.88 C
Sensor: Nr:Datum:Temp:Feuchte:Taupunkt:
Aussen-T/F 226 24-05-2014 18:45:00 17.8 C 58 % 9.43 C
227 24-05-2014 18:50:00 17.5 C 62 % 10.15 C
228 24-05-2014 18:55:00 17.2 C 71 % 11.9 C
229 24-05-2014 19:00:00 16.8 C 64 % 9.96 C
230 24-05-2014 19:05:00 16.5 C 71 % 11.23 C
231 24-05-2014 19:10:00 16.3 C 73 % 11.46 C
232 24-05-2014 19:15:00 16.3 C 65 % 9.71 C
233 24-05-2014 19:20:00 16.3 C 65 % 9.71 C
234 24-05-2014 19:25:00 16.4 C 66 % 10.04 C
235 24-05-2014 19:30:00 16.4 C 72 % 11.34 C
236 24-05-2014 19:35:00 16.3 C 75 % 11.86 C
237 24-05-2014 19:40:00 16.2 C 76 % 11.97 C
238 24-05-2014 19:45:00 16 C 76 % 11.77 C
239 24-05-2014 19:50:00 15.8 C 79 % 12.17 C
240 24-05-2014 19:55:00 15.8 C 75 % 11.38 C
241 24-05-2014 20:00:00 16.1 C 77 % 12.07 C
242 24-05-2014 20:05:00 16.2 C 69 % 10.51 C
243 24-05-2014 20:10:00 16.3 C 76 % 12.07 C
244 24-05-2014 20:15:00 16.2 C 75 % 11.77 C
245 24-05-2014 20:20:00 16.1 C 77 % 12.07 C
246 24-05-2014 20:25:00 16 C 75 % 11.57 C
247 24-05-2014 20:30:00 15.8 C 78 % 11.97 C
248 24-05-2014 20:35:00 15.6 C 79 % 11.97 C
249 24-05-2014 20:40:00 15.4 C 78 % 11.59 C
250 24-05-2014 20:45:00 15.2 C 80 % 11.78 C
Sensor: Nr:Datum:Temp:Feuchte:Taupunkt:
Aussen-T/F 251 24-05-2014 20:50:00 14.9 C 81 % 11.67 C
252 24-05-2014 20:55:00 14.7 C 82 % 11.66 C
253 24-05-2014 21:00:00 14.4 C 81 % 11.18 C
254 24-05-2014 21:05:00 14.1 C 82 % 11.08 C
255 24-05-2014 21:10:00 13.9 C 82 % 10.88 C
256 24-05-2014 21:15:00 13.8 C 82 % 10.78 C
257 24-05-2014 21:20:00 13.6 C 83 % 10.77 C
258 24-05-2014 21:25:00 13.5 C 83 % 10.67 C
259 24-05-2014 21:30:00 13.4 C 85 % 10.93 C
260 24-05-2014 21:35:00 13.2 C 85 % 10.74 C
261 24-05-2014 21:40:00 13.1 C 85 % 10.64 C
262 24-05-2014 21:45:00 12.9 C 85 % 10.44 C
263 24-05-2014 21:50:00 12.7 C 84 % 10.07 C
264 24-05-2014 21:55:00 12.6 C 84 % 9.97 C
265 24-05-2014 22:00:00 12.4 C 84 % 9.78 C
266 24-05-2014 22:05:00 12.3 C 85 % 9.85 C
267 24-05-2014 22:10:00 12.3 C 85 % 9.85 C
268 24-05-2014 22:35:00 11.8 C 87 % 9.71 C
269 24-05-2014 22:40:00 11.8 C 87 % 9.71 C
270 24-05-2014 22:45:00 11.7 C 87 % 9.61 C
271 24-05-2014 22:50:00 11.6 C 87 % 9.51 C
272 24-05-2014 22:55:00 11.4 C 87 % 9.32 C
273 24-05-2014 23:00:00 11.3 C 87 % 9.22 C
274 24-05-2014 23:05:00 11.3 C 88 % 9.39 C
275 24-05-2014 23:10:00 11.2 C 88 % 9.29 C
Sensor: Nr:Datum:Temp:Feuchte:Taupunkt:
Aussen-T/F 276 24-05-2014 23:15:00 11.2 C 87 % 9.12 C
277 24-05-2014 23:20:00 11.3 C 87 % 9.22 C
278 24-05-2014 23:25:00 11.3 C 87 % 9.22 C
279 24-05-2014 23:30:00 11.2 C 87 % 9.12 C
280 24-05-2014 23:35:00 11.1 C 87 % 9.02 C
281 24-05-2014 23:40:00 11 C 88 % 9.09 C
282 24-05-2014 23:45:00 10.9 C 88 % 8.99 C
283 24-05-2014 23:50:00 10.8 C 88 % 8.89 C
284 24-05-2014 23:55:00 10.7 C 89 % 8.96 C
285 25-05-2014 00:00:00 10.7 C 89 % 8.96 C
286 25-05-2014 00:05:00 10.7 C 89 % 8.96 C
287 25-05-2014 00:10:00 10.6 C 89 % 8.86 C
288 25-05-2014 00:15:00 10.5 C 88 % 8.6 C
289 25-05-2014 00:20:00 10.4 C 88 % 8.5 C
290 25-05-2014 00:25:00 10.3 C 89 % 8.57 C
291 25-05-2014 00:30:00 10.2 C 89 % 8.47 C
292 25-05-2014 00:35:00 10 C 90 % 8.44 C
293 25-05-2014 00:40:00 9.9 C 90 % 8.34 C
294 25-05-2014 00:45:00 9.9 C 91 % 8.5 C
295 25-05-2014 00:50:00 9.8 C 91 % 8.4 C
296 25-05-2014 00:55:00 9.8 C 91 % 8.4 C
297 25-05-2014 01:00:00 9.7 C 91 % 8.3 C
298 25-05-2014 01:05:00 9.7 C 91 % 8.3 C
299 25-05-2014 01:10:00 9.6 C 91 % 8.21 C
300 25-05-2014 01:15:00 9.5 C 91 % 8.11 C
Sensor: Nr:Datum:Temp:Feuchte:Taupunkt:
Aussen-T/F 301 25-05-2014 01:20:00 9.5 C 91 % 8.11 C
302 25-05-2014 01:25:00 9.4 C 91 % 8.01 C
303 25-05-2014 01:30:00 9.3 C 92 % 8.07 C
304 25-05-2014 01:35:00 9.3 C 92 % 8.07 C
305 25-05-2014 01:40:00 9.3 C 92 % 8.07 C
306 25-05-2014 01:45:00 9.3 C 92 % 8.07 C
307 25-05-2014 01:50:00 9.3 C 93 % 8.23 C
308 25-05-2014 01:55:00 9.3 C 93 % 8.23 C
309 25-05-2014 02:00:00 9.2 C 92 % 7.97 C
310 25-05-2014 02:05:00 9.1 C 92 % 7.87 C
311 25-05-2014 02:10:00 9 C 92 % 7.77 C
312 25-05-2014 02:15:00 8.9 C 93 % 7.83 C
313 25-05-2014 02:20:00 8.9 C 93 % 7.83 C
314 25-05-2014 02:25:00 8.9 C 93 % 7.83 C
315 25-05-2014 02:30:00 8.8 C 93 % 7.73 C
316 25-05-2014 02:35:00 8.8 C 93 % 7.73 C
317 25-05-2014 02:40:00 8.7 C 93 % 7.63 C
318 25-05-2014 02:45:00 8.7 C 94 % 7.79 C
319 25-05-2014 02:50:00 8.7 C 93 % 7.63 C
320 25-05-2014 02:55:00 8.7 C 94 % 7.79 C
321 25-05-2014 03:00:00 8.6 C 94 % 7.69 C
322 25-05-2014 03:05:00 8.6 C 94 % 7.69 C
323 25-05-2014 03:10:00 8.5 C 94 % 7.59 C
324 25-05-2014 03:15:00 8.5 C 94 % 7.59 C
325 25-05-2014 03:20:00 8.4 C 94 % 7.49 C
Sensor: Nr:Datum:Temp:Feuchte:Taupunkt:
Aussen-T/F 326 25-05-2014 03:25:00 8.3 C 94 % 7.39 C
327 25-05-2014 03:30:00 8.3 C 94 % 7.39 C
328 25-05-2014 03:35:00 8.2 C 94 % 7.29 C
329 25-05-2014 03:40:00 8.2 C 94 % 7.29 C
330 25-05-2014 03:45:00 8.2 C 94 % 7.29 C
331 25-05-2014 03:50:00 8.2 C 94 % 7.29 C
332 25-05-2014 03:55:00 8.1 C 95 % 7.35 C
333 25-05-2014 04:00:00 8.1 C 95 % 7.35 C
334 25-05-2014 04:05:00 8.1 C 95 % 7.35 C
335 25-05-2014 04:10:00 8 C 95 % 7.25 C
336 25-05-2014 04:15:00 7.9 C 95 % 7.15 C
337 25-05-2014 04:20:00 7.9 C 95 % 7.15 C
338 25-05-2014 04:25:00 7.9 C 95 % 7.15 C
339 25-05-2014 04:30:00 7.9 C 95 % 7.15 C
340 25-05-2014 04:35:00 7.8 C 95 % 7.05 C
341 25-05-2014 04:40:00 7.8 C 95 % 7.05 C
342 25-05-2014 04:45:00 7.8 C 95 % 7.05 C
343 25-05-2014 04:50:00 7.8 C 95 % 7.05 C
344 25-05-2014 04:55:00 7.7 C 95 % 6.95 C
345 25-05-2014 05:00:00 7.7 C 95 % 6.95 C
346 25-05-2014 05:05:00 7.7 C 95 % 6.95 C
347 25-05-2014 05:10:00 7.7 C 95 % 6.95 C
348 25-05-2014 05:15:00 7.6 C 95 % 6.85 C
349 25-05-2014 05:20:00 7.6 C 95 % 6.85 C
350 25-05-2014 05:25:00 7.5 C 95 % 6.75 C
Sensor: Nr:Datum:Temp:Feuchte:Taupunkt:
Aussen-T/F 351 25-05-2014 05:30:00 7.5 C 96 % 6.9 C
352 25-05-2014 05:35:00 7.5 C 96 % 6.9 C
353 25-05-2014 05:40:00 7.5 C 96 % 6.9 C
354 25-05-2014 05:45:00 7.5 C 96 % 6.9 C
355 25-05-2014 05:50:00 7.4 C 96 % 6.8 C
356 25-05-2014 05:55:00 7.4 C 96 % 6.8 C
357 25-05-2014 06:00:00 7.4 C 96 % 6.8 C
358 25-05-2014 06:05:00 7.4 C 96 % 6.8 C
359 25-05-2014 06:10:00 7.5 C 96 % 6.9 C
360 25-05-2014 06:15:00 7.5 C 96 % 6.9 C
361 25-05-2014 06:20:00 7.5 C 96 % 6.9 C
362 25-05-2014 06:25:00 7.5 C 96 % 6.9 C
363 25-05-2014 06:30:00 7.5 C 96 % 6.9 C
364 25-05-2014 06:35:00 7.5 C 96 % 6.9 C
365 25-05-2014 06:40:00 7.5 C 96 % 6.9 C
366 25-05-2014 06:45:00 7.5 C 96 % 6.9 C
367 25-05-2014 06:50:00 7.5 C 96 % 6.9 C
368 25-05-2014 06:55:00 7.6 C 96 % 7 C
369 25-05-2014 07:00:00 7.7 C 96 % 7.1 C
370 25-05-2014 07:05:00 7.8 C 96 % 7.2 C
371 25-05-2014 07:10:00 7.8 C 96 % 7.2 C
372 25-05-2014 07:15:00 7.8 C 96 % 7.2 C
373 25-05-2014 07:20:00 7.9 C 96 % 7.3 C
374 25-05-2014 07:25:00 7.9 C 96 % 7.3 C
375 25-05-2014 07:30:00 8 C 97 % 7.55 C
Sensor: Nr:Datum:Temp:Feuchte:Taupunkt:
Aussen-T/F 376 25-05-2014 07:35:00 8.1 C 97 % 7.65 C
377 25-05-2014 07:40:00 8.2 C 96 % 7.6 C
378 25-05-2014 07:45:00 8.3 C 97 % 7.85 C
379 25-05-2014 07:50:00 8.4 C 97 % 7.95 C
380 25-05-2014 07:55:00 8.6 C 97 % 8.15 C
381 25-05-2014 08:00:00 8.9 C 96 % 8.3 C
382 25-05-2014 08:05:00 9.1 C 96 % 8.5 C
383 25-05-2014 08:10:00 9.3 C 95 % 8.54 C
384 25-05-2014 08:15:00 9.6 C 95 % 8.84 C
385 25-05-2014 08:20:00 9.8 C 94 % 8.88 C
386 25-05-2014 08:25:00 10.2 C 93 % 9.12 C
387 25-05-2014 08:30:00 10.3 C 93 % 9.22 C
388 25-05-2014 08:35:00 10.6 C 92 % 9.36 C
389 25-05-2014 08:40:00 10.8 C 91 % 9.39 C
390 25-05-2014 08:45:00 11.1 C 90 % 9.52 C
391 25-05-2014 08:50:00 11.3 C 90 % 9.72 C
392 25-05-2014 08:55:00 11.4 C 89 % 9.65 C
393 25-05-2014 09:00:00 11.6 C 89 % 9.85 C
394 25-05-2014 09:05:00 11.6 C 89 % 9.85 C
395 25-05-2014 09:10:00 11.5 C 89 % 9.75 C
396 25-05-2014 09:15:00 11.4 C 90 % 9.82 C
397 25-05-2014 09:20:00 11.4 C 91 % 9.98 C
398 25-05-2014 09:25:00 11.6 C 91 % 10.18 C
399 25-05-2014 09:30:00 11.7 C 92 % 10.44 C
400 25-05-2014 09:35:00 11.9 C 92 % 10.64 C
Sensor: Nr:Datum:Temp:Feuchte:Taupunkt:
Aussen-T/F 401 25-05-2014 09:40:00 12.1 C 92 % 10.84 C
402 25-05-2014 09:45:00 12.3 C 91 % 10.87 C
403 25-05-2014 09:50:00 12.4 C 91 % 10.97 C
404 25-05-2014 09:55:00 12.7 C 91 % 11.27 C
405 25-05-2014 10:00:00 13.1 C 91 % 11.67 C
406 25-05-2014 10:05:00 13.6 C 90 % 11.99 C
407 25-05-2014 10:10:00 14.2 C 88 % 12.24 C
408 25-05-2014 10:15:00 14.7 C 86 % 12.38 C
409 25-05-2014 10:20:00 14.9 C 86 % 12.58 C
410 25-05-2014 10:25:00 15.3 C 82 % 12.25 C
411 25-05-2014 10:30:00 15.8 C 81 % 12.55 C
412 25-05-2014 10:35:00 16.2 C 81 % 12.94 C
413 25-05-2014 10:40:00 16.6 C 77 % 12.55 C
414 25-05-2014 10:45:00 16.8 C 78 % 12.94 C
415 25-05-2014 10:50:00 16.7 C 79 % 13.04 C
416 25-05-2014 10:55:00 16.7 C 80 % 13.23 C
417 25-05-2014 11:00:00 16.8 C 78 % 12.94 C
418 25-05-2014 11:05:00 17.2 C 78 % 13.33 C
419 25-05-2014 11:10:00 17.4 C 74 % 12.72 C
420 25-05-2014 11:15:00 17.8 C 73 % 12.9 C
421 25-05-2014 11:20:00 18.1 C 75 % 13.6 C
422 25-05-2014 11:25:00 18.3 C 73 % 13.38 C
423 25-05-2014 11:30:00 18.6 C 64 % 11.66 C
424 25-05-2014 11:35:00 18.7 C 67 % 12.45 C
425 25-05-2014 11:40:00 19.1 C 62 % 11.65 C
Sensor: Nr:Datum:Temp:Feuchte:Taupunkt:
Aussen-T/F 426 25-05-2014 11:45:00 19.6 C 57 % 10.86 C
427 25-05-2014 11:50:00 20 C 57 % 11.23 C
428 25-05-2014 11:55:00 20.2 C 57 % 11.42 C
429 25-05-2014 12:00:00 20.6 C 56 % 11.52 C
430 25-05-2014 12:05:00 20.8 C 54 % 11.16 C
431 25-05-2014 12:10:00 20.9 C 51 % 10.39 C
432 25-05-2014 12:15:00 21.1 C 57 % 12.25 C
433 25-05-2014 12:20:00 20.9 C 47 % 9.17 C
434 25-05-2014 12:25:00 20.9 C 50 % 10.1 C
435 25-05-2014 12:30:00 21.1 C 49 % 9.98 C
436 25-05-2014 12:35:00 21.3 C 52 % 11.05 C
437 25-05-2014 12:40:00 21.3 C 46 % 9.22 C
438 25-05-2014 12:45:00 21.3 C 47 % 9.54 C
439 25-05-2014 12:50:00 21.5 C 47 % 9.72 C
440 25-05-2014 12:55:00 21.7 C 51 % 11.13 C
441 25-05-2014 13:00:00 22.1 C 45 % 9.62 C
442 25-05-2014 13:05:00 22 C 46 % 9.86 C
443 25-05-2014 13:10:00 21.9 C 44 % 9.1 C
444 25-05-2014 13:15:00 21.9 C 43 % 8.76 C
445 25-05-2014 13:20:00 21.9 C 46 % 9.77 C
446 25-05-2014 13:25:00 22.1 C 43 % 8.95 C
447 25-05-2014 13:30:00 22.4 C 41 % 8.51 C
448 25-05-2014 13:35:00 22.3 C 43 % 9.13 C
449 25-05-2014 13:40:00 22.4 C 45 % 9.89 C
450 25-05-2014 13:45:00 22.6 C 47 % 10.72 C
Sensor: Nr:Datum:Temp:Feuchte:Taupunkt:
Aussen-T/F 451 25-05-2014 13:50:00 22.4 C 47 % 10.54 C
452 25-05-2014 13:55:00 22.7 C 46 % 10.49 C
453 25-05-2014 14:00:00 23.1 C 44 % 10.19 C
454 25-05-2014 14:05:00 22.9 C 49 % 11.63 C
455 25-05-2014 14:10:00 22.9 C 51 % 12.23 C
456 25-05-2014 14:15:00 23.1 C 46 % 10.86 C
457 25-05-2014 14:20:00 23.1 C 47 % 11.18 C
458 25-05-2014 14:25:00 23.2 C 45 % 10.62 C
459 25-05-2014 14:30:00 23.1 C 44 % 10.19 C
460 25-05-2014 14:35:00 22.9 C 43 % 9.67 C
461 25-05-2014 14:40:00 23.1 C 44 % 10.19 C
462 25-05-2014 14:45:00 23.2 C 45 % 10.62 C
463 25-05-2014 14:50:00 23.3 C 47 % 11.36 C
464 25-05-2014 14:55:00 23.5 C 45 % 10.89 C
465 25-05-2014 15:00:00 23.4 C 46 % 11.13 C
466 25-05-2014 15:05:00 23.4 C 45 % 10.8 C
467 25-05-2014 15:10:00 23.8 C 45 % 11.16 C
468 25-05-2014 15:15:00 23.7 C 42 % 10.03 C
469 25-05-2014 15:20:00 23.3 C 44 % 10.37 C
470 25-05-2014 15:25:00 23.3 C 43 % 10.03 C
471 25-05-2014 15:30:00 23.6 C 42 % 9.94 C
472 25-05-2014 15:35:00 23.6 C 44 % 10.64 C
473 25-05-2014 15:40:00 23.5 C 44 % 10.55 C
474 25-05-2014 15:45:00 23.6 C 43 % 10.3 C
475 25-05-2014 15:50:00 23.4 C 46 % 11.13 C
Sensor: Nr:Datum:Temp:Feuchte:Taupunkt:
Aussen-T/F 476 25-05-2014 15:55:00 23.2 C 40 % 8.86 C
477 25-05-2014 16:00:00 22.9 C 51 % 12.23 C
478 25-05-2014 16:05:00 22.7 C 45 % 10.16 C
479 25-05-2014 16:10:00 22.7 C 46 % 10.49 C
480 25-05-2014 16:15:00 23.1 C 45 % 10.53 C
481 25-05-2014 16:20:00 23.7 C 50 % 12.67 C
482 25-05-2014 16:25:00 23.6 C 44 % 10.64 C
483 25-05-2014 16:30:00 23.8 C 43 % 10.48 C
484 25-05-2014 16:35:00 23.8 C 44 % 10.82 C
485 25-05-2014 16:40:00 24.1 C 43 % 10.75 C
486 25-05-2014 16:45:00 24.6 C 42 % 10.84 C
487 25-05-2014 16:50:00 24.7 C 39 % 9.82 C
488 25-05-2014 16:55:00 24.8 C 42 % 11.02 C
489 25-05-2014 17:00:00 24.8 C 39 % 9.91 C
490 25-05-2014 17:05:00 24.6 C 39 % 9.73 C
491 25-05-2014 17:10:00 24.5 C 42 % 10.75 C
492 25-05-2014 17:15:00 24.4 C 40 % 9.93 C
493 25-05-2014 17:20:00 24.4 C 40 % 9.93 C
494 25-05-2014 17:55:00 24.6 C 41 % 10.48 C
495 25-05-2014 18:00:00 24.6 C 41 % 10.48 C
496 25-05-2014 18:05:00 24.3 C 43 % 10.93 C
497 25-05-2014 18:10:00 23.8 C 43 % 10.48 C
498 25-05-2014 18:15:00 23.8 C 43 % 10.48 C
499 25-05-2014 18:20:00 23.8 C 43 % 10.48 C
500 25-05-2014 18:25:00 23.3 C 43 % 10.03 C
Sensor: Nr:Datum:Temp:Feuchte:Taupunkt:
Aussen-T/F 501 25-05-2014 18:30:00 23.3 C 43 % 10.03 C
502 25-05-2014 18:35:00 23.3 C 46 % 11.04 C
503 25-05-2014 18:40:00 23.9 C 43 % 10.57 C
504 25-05-2014 18:45:00 24.2 C 40 % 9.75 C
505 25-05-2014 18:50:00 24 C 47 % 12 C
506 25-05-2014 18:55:00 23.4 C 56 % 14.13 C
507 25-05-2014 19:00:00 22.8 C 51 % 12.14 C
508 25-05-2014 19:05:00 22.3 C 62 % 14.67 C
509 25-05-2014 19:10:00 21.5 C 66 % 14.88 C
510 25-05-2014 19:15:00 20.7 C 67 % 14.36 C
511 25-05-2014 19:20:00 20.1 C 68 % 14.01 C
512 25-05-2014 19:25:00 19.7 C 70 % 14.08 C
513 25-05-2014 19:30:00 19.3 C 71 % 13.91 C
514 25-05-2014 19:35:00 19.1 C 72 % 13.94 C
515 25-05-2014 19:40:00 18.8 C 74 % 14.07 C
516 25-05-2014 19:45:00 18.7 C 74 % 13.97 C
517 25-05-2014 19:50:00 18.5 C 75 % 13.99 C
518 25-05-2014 19:55:00 18.4 C 76 % 14.1 C
519 25-05-2014 20:00:00 18.2 C 76 % 13.9 C
520 25-05-2014 20:05:00 18.1 C 76 % 13.81 C
521 25-05-2014 20:10:00 17.9 C 76 % 13.61 C
522 25-05-2014 20:15:00 17.8 C 76 % 13.52 C
523 25-05-2014 20:20:00 17.7 C 77 % 13.62 C
524 25-05-2014 20:25:00 17.6 C 76 % 13.32 C
525 25-05-2014 20:30:00 17.5 C 77 % 13.43 C
Sensor: Nr:Datum:Temp:Feuchte:Taupunkt:
Aussen-T/F 526 25-05-2014 20:35:00 17.4 C 77 % 13.33 C
527 25-05-2014 20:40:00 17.3 C 77 % 13.23 C
528 25-05-2014 20:45:00 17.2 C 77 % 13.14 C
529 25-05-2014 20:50:00 17.2 C 76 % 12.94 C
530 25-05-2014 20:55:00 17.1 C 76 % 12.84 C
531 25-05-2014 21:00:00 17 C 76 % 12.74 C
532 25-05-2014 21:05:00 16.9 C 77 % 12.84 C
533 25-05-2014 21:10:00 16.8 C 77 % 12.75 C
534 25-05-2014 21:15:00 16.7 C 77 % 12.65 C
535 25-05-2014 21:20:00 16.6 C 77 % 12.55 C
536 25-05-2014 21:25:00 16.6 C 79 % 12.95 C
537 25-05-2014 21:30:00 16.4 C 77 % 12.36 C
538 25-05-2014 21:35:00 16.4 C 78 % 12.56 C
539 25-05-2014 21:40:00 16.3 C 77 % 12.26 C
540 25-05-2014 21:45:00 16.3 C 77 % 12.26 C
541 25-05-2014 21:50:00 16.2 C 76 % 11.97 C
542 25-05-2014 21:55:00 16.1 C 77 % 12.07 C
543 25-05-2014 22:00:00 16.1 C 77 % 12.07 C
544 25-05-2014 22:05:00 15.8 C 78 % 11.97 C
545 25-05-2014 22:10:00 15.8 C 80 % 12.36 C
546 25-05-2014 22:15:00 15.7 C 79 % 12.07 C
547 25-05-2014 22:20:00 15.7 C 80 % 12.26 C
548 25-05-2014 22:25:00 15.6 C 79 % 11.97 C
549 25-05-2014 22:30:00 15.6 C 78 % 11.78 C
550 25-05-2014 22:35:00 15.6 C 78 % 11.78 C
Sensor: Nr:Datum:Temp:Feuchte:Taupunkt:
Aussen-T/F 551 25-05-2014 22:40:00 15.6 C 79 % 11.97 C
552 25-05-2014 22:45:00 15.6 C 78 % 11.78 C
553 25-05-2014 22:50:00 15.6 C 80 % 12.16 C
554 25-05-2014 22:55:00 15.6 C 81 % 12.35 C
555 25-05-2014 23:00:00 15.5 C 80 % 12.07 C
556 25-05-2014 23:05:00 15.5 C 80 % 12.07 C
557 25-05-2014 23:10:00 15.4 C 80 % 11.97 C
558 25-05-2014 23:15:00 15.3 C 80 % 11.87 C
559 25-05-2014 23:20:00 15.3 C 80 % 11.87 C
560 25-05-2014 23:25:00 15.2 C 80 % 11.78 C
561 25-05-2014 23:30:00 15.1 C 79 % 11.49 C
562 25-05-2014 23:35:00 14.9 C 79 % 11.29 C
563 25-05-2014 23:40:00 14.8 C 80 % 11.39 C
564 25-05-2014 23:45:00 14.8 C 80 % 11.39 C
565 25-05-2014 23:50:00 14.7 C 80 % 11.29 C
566 25-05-2014 23:55:00 14.7 C 81 % 11.48 C
567 26-05-2014 00:00:00 14.6 C 82 % 11.56 C
568 26-05-2014 00:05:00 14.6 C 81 % 11.38 C
569 26-05-2014 00:10:00 14.5 C 81 % 11.28 C
570 26-05-2014 00:15:00 14.4 C 82 % 11.37 C
571 26-05-2014 00:20:00 14.3 C 82 % 11.27 C
572 26-05-2014 00:25:00 14.3 C 83 % 11.45 C
573 26-05-2014 00:30:00 14.2 C 83 % 11.36 C
574 26-05-2014 00:35:00 14.1 C 83 % 11.26 C
575 26-05-2014 00:40:00 13.9 C 83 % 11.06 C
Sensor: Nr:Datum:Temp:Feuchte:Taupunkt:
Aussen-T/F 576 26-05-2014 00:45:00 13.9 C 83 % 11.06 C
577 26-05-2014 00:50:00 13.9 C 83 % 11.06 C
578 26-05-2014 00:55:00 13.9 C 83 % 11.06 C
579 26-05-2014 01:00:00 14 C 83 % 11.16 C
580 26-05-2014 01:05:00 14 C 83 % 11.16 C
581 26-05-2014 01:10:00 13.9 C 83 % 11.06 C
582 26-05-2014 01:15:00 13.9 C 83 % 11.06 C
583 26-05-2014 01:20:00 13.9 C 82 % 10.88 C
584 26-05-2014 01:25:00 13.9 C 83 % 11.06 C
585 26-05-2014 01:30:00 13.8 C 83 % 10.97 C
586 26-05-2014 01:35:00 13.8 C 83 % 10.97 C
587 26-05-2014 01:40:00 13.7 C 82 % 10.69 C
588 26-05-2014 01:45:00 13.7 C 83 % 10.87 C
589 26-05-2014 01:50:00 13.7 C 84 % 11.05 C
590 26-05-2014 01:55:00 13.6 C 84 % 10.95 C
591 26-05-2014 02:00:00 13.5 C 84 % 10.85 C
592 26-05-2014 02:05:00 13.4 C 85 % 10.93 C
593 26-05-2014 02:10:00 13.4 C 86 % 11.11 C
594 26-05-2014 02:15:00 13.4 C 86 % 11.11 C
595 26-05-2014 02:20:00 13.3 C 85 % 10.83 C
596 26-05-2014 02:25:00 13.3 C 85 % 10.83 C
597 26-05-2014 02:30:00 13.3 C 85 % 10.83 C
598 26-05-2014 02:35:00 13.2 C 85 % 10.74 C
599 26-05-2014 02:40:00 13.2 C 86 % 10.91 C
600 26-05-2014 02:45:00 13.2 C 86 % 10.91 C
Sensor: Nr:Datum:Temp:Feuchte:Taupunkt:
Aussen-T/F 601 26-05-2014 02:50:00 13.2 C 86 % 10.91 C
602 26-05-2014 02:55:00 13.1 C 86 % 10.81 C
603 26-05-2014 03:00:00 13.1 C 86 % 10.81 C
604 26-05-2014 03:05:00 13.1 C 87 % 10.99 C
605 26-05-2014 03:10:00 13.1 C 87 % 10.99 C
606 26-05-2014 03:15:00 13 C 86 % 10.72 C
607 26-05-2014 03:20:00 13 C 86 % 10.72 C
608 26-05-2014 03:25:00 13 C 86 % 10.72 C
609 26-05-2014 03:30:00 13 C 87 % 10.89 C
610 26-05-2014 03:35:00 12.9 C 87 % 10.79 C
611 26-05-2014 03:40:00 12.9 C 87 % 10.79 C
612 26-05-2014 03:45:00 12.9 C 88 % 10.96 C
613 26-05-2014 03:50:00 12.8 C 87 % 10.69 C
614 26-05-2014 03:55:00 12.8 C 87 % 10.69 C
615 26-05-2014 04:00:00 12.8 C 88 % 10.86 C
616 26-05-2014 04:05:00 12.8 C 88 % 10.86 C
617 26-05-2014 04:10:00 12.8 C 88 % 10.86 C
618 26-05-2014 04:15:00 12.8 C 88 % 10.86 C
619 26-05-2014 04:20:00 12.8 C 88 % 10.86 C
620 26-05-2014 04:25:00 12.8 C 88 % 10.86 C
621 26-05-2014 04:30:00 12.8 C 88 % 10.86 C
622 26-05-2014 04:35:00 12.7 C 88 % 10.77 C
623 26-05-2014 04:40:00 12.8 C 88 % 10.86 C
624 26-05-2014 04:45:00 12.7 C 88 % 10.77 C
625 26-05-2014 04:50:00 12.8 C 89 % 11.03 C
Sensor: Nr:Datum:Temp:Feuchte:Taupunkt:
Aussen-T/F 626 26-05-2014 04:55:00 12.8 C 89 % 11.03 C
627 26-05-2014 05:00:00 12.8 C 88 % 10.86 C
628 26-05-2014 05:05:00 12.8 C 88 % 10.86 C
629 26-05-2014 05:10:00 12.8 C 88 % 10.86 C
630 26-05-2014 05:15:00 12.9 C 88 % 10.96 C
631 26-05-2014 05:20:00 13 C 88 % 11.06 C
632 26-05-2014 05:25:00 13.1 C 88 % 11.16 C
633 26-05-2014 05:30:00 13.1 C 88 % 11.16 C
634 26-05-2014 05:35:00 13.2 C 88 % 11.26 C
635 26-05-2014 05:40:00 13.2 C 88 % 11.26 C
636 26-05-2014 05:45:00 13.2 C 88 % 11.26 C
637 26-05-2014 05:50:00 13.2 C 88 % 11.26 C
638 26-05-2014 05:55:00 13.2 C 88 % 11.26 C
639 26-05-2014 06:00:00 13.2 C 88 % 11.26 C
640 26-05-2014 06:05:00 13.2 C 88 % 11.26 C
641 26-05-2014 06:10:00 13.2 C 89 % 11.43 C
642 26-05-2014 06:15:00 13.2 C 89 % 11.43 C
643 26-05-2014 06:20:00 13.2 C 89 % 11.43 C
644 26-05-2014 06:25:00 13.2 C 89 % 11.43 C
645 26-05-2014 06:30:00 13.2 C 89 % 11.43 C
646 26-05-2014 06:35:00 13.2 C 89 % 11.43 C
647 26-05-2014 06:40:00 13.2 C 89 % 11.43 C
648 26-05-2014 06:45:00 13.3 C 89 % 11.53 C
649 26-05-2014 06:50:00 13.3 C 89 % 11.53 C
650 26-05-2014 06:55:00 13.3 C 90 % 11.7 C
Sensor: Nr:Datum:Temp:Feuchte:Taupunkt:
Aussen-T/F 651 26-05-2014 07:00:00 13.3 C 90 % 11.7 C
652 26-05-2014 07:05:00 13.3 C 90 % 11.7 C
653 26-05-2014 07:10:00 13.3 C 90 % 11.7 C
654 26-05-2014 07:15:00 13.4 C 90 % 11.79 C
655 26-05-2014 07:20:00 13.4 C 90 % 11.79 C
656 26-05-2014 07:25:00 13.4 C 90 % 11.79 C
657 26-05-2014 07:30:00 13.5 C 90 % 11.89 C
658 26-05-2014 07:35:00 13.6 C 90 % 11.99 C
659 26-05-2014 07:40:00 13.7 C 90 % 12.09 C
660 26-05-2014 07:45:00 13.8 C 90 % 12.19 C
661 26-05-2014 07:50:00 13.8 C 90 % 12.19 C
662 26-05-2014 07:55:00 13.9 C 91 % 12.46 C
663 26-05-2014 08:00:00 14.1 C 91 % 12.65 C
664 26-05-2014 08:05:00 14.2 C 90 % 12.58 C
665 26-05-2014 08:10:00 14.3 C 90 % 12.68 C
666 26-05-2014 08:15:00 14.3 C 90 % 12.68 C
667 26-05-2014 08:20:00 14.4 C 89 % 12.61 C
668 26-05-2014 08:25:00 14.5 C 89 % 12.71 C
669 26-05-2014 08:30:00 14.6 C 89 % 12.81 C
670 26-05-2014 08:35:00 14.8 C 88 % 12.83 C
671 26-05-2014 08:40:00 15 C 87 % 12.86 C
672 26-05-2014 08:45:00 15.2 C 86 % 12.88 C
673 26-05-2014 08:50:00 15.4 C 87 % 13.25 C
674 26-05-2014 08:55:00 15.4 C 84 % 12.71 C
675 26-05-2014 09:00:00 15.5 C 86 % 13.17 C
Sensor: Nr:Datum:Temp:Feuchte:Taupunkt:
Aussen-T/F 676 26-05-2014 09:05:00 15.6 C 85 % 13.09 C
677 26-05-2014 09:10:00 15.6 C 84 % 12.91 C
678 26-05-2014 09:15:00 15.7 C 85 % 13.19 C
679 26-05-2014 09:20:00 15.7 C 83 % 12.82 C
680 26-05-2014 09:25:00 15.7 C 82 % 12.64 C
681 26-05-2014 09:30:00 15.8 C 84 % 13.1 C
682 26-05-2014 09:35:00 15.7 C 85 % 13.19 C
683 26-05-2014 09:40:00 15.7 C 86 % 13.37 C
684 26-05-2014 09:45:00 15.6 C 85 % 13.09 C
685 26-05-2014 09:50:00 15.6 C 86 % 13.27 C
686 26-05-2014 09:55:00 15.6 C 85 % 13.09 C
687 26-05-2014 10:00:00 15.8 C 83 % 12.92 C
688 26-05-2014 10:05:00 15.9 C 85 % 13.38 C
689 26-05-2014 10:10:00 15.9 C 85 % 13.38 C
690 26-05-2014 10:15:00 15.9 C 82 % 12.83 C
691 26-05-2014 10:20:00 16 C 82 % 12.93 C
692 26-05-2014 10:25:00 16.2 C 81 % 12.94 C
693 26-05-2014 10:30:00 16.4 C 81 % 13.13 C
694 26-05-2014 10:35:00 16.7 C 80 % 13.23 C
695 26-05-2014 10:40:00 16.9 C 78 % 13.04 C
696 26-05-2014 10:45:00 17 C 77 % 12.94 C
697 26-05-2014 10:50:00 17.2 C 78 % 13.33 C
698 26-05-2014 10:55:00 17.4 C 77 % 13.33 C
699 26-05-2014 11:00:00 17.5 C 77 % 13.43 C
700 26-05-2014 11:05:00 17.6 C 76 % 13.32 C
Sensor: Nr:Datum:Temp:Feuchte:Taupunkt:
Aussen-T/F 701 26-05-2014 11:10:00 17.7 C 76 % 13.42 C
702 26-05-2014 11:15:00 17.8 C 76 % 13.52 C
703 26-05-2014 11:20:00 17.9 C 74 % 13.2 C
704 26-05-2014 11:25:00 17.8 C 74 % 13.11 C
705 26-05-2014 11:30:00 17.8 C 74 % 13.11 C
706 26-05-2014 11:35:00 17.9 C 74 % 13.2 C
707 26-05-2014 11:40:00 18 C 74 % 13.3 C
708 26-05-2014 11:45:00 18 C 73 % 13.09 C
709 26-05-2014 11:50:00 18.1 C 75 % 13.6 C
710 26-05-2014 11:55:00 18.2 C 74 % 13.49 C
711 26-05-2014 12:00:00 18.3 C 75 % 13.79 C
712 26-05-2014 12:05:00 18.3 C 74 % 13.59 C
713 26-05-2014 12:10:00 18.3 C 75 % 13.79 C
714 26-05-2014 12:15:00 18.2 C 75 % 13.7 C
715 26-05-2014 12:20:00 18 C 74 % 13.3 C
716 26-05-2014 12:25:00 17.8 C 76 % 13.52 C
717 26-05-2014 12:30:00 17.7 C 76 % 13.42 C
718 26-05-2014 12:35:00 17.8 C 78 % 13.91 C
719 26-05-2014 12:40:00 17.9 C 78 % 14.01 C
720 26-05-2014 12:45:00 18.2 C 75 % 13.7 C
721 26-05-2014 12:50:00 18.5 C 78 % 14.59 C
722 26-05-2014 12:55:00 18.9 C 76 % 14.58 C
723 26-05-2014 13:00:00 19.3 C 75 % 14.76 C
724 26-05-2014 13:05:00 19.3 C 73 % 14.34 C
725 26-05-2014 13:10:00 19.6 C 76 % 15.26 C
Sensor: Nr:Datum:Temp:Feuchte:Taupunkt:
Aussen-T/F 726 26-05-2014 13:15:00 19.9 C 71 % 14.49 C
727 26-05-2014 13:20:00 19.8 C 72 % 14.61 C
728 26-05-2014 13:25:00 19.7 C 71 % 14.3 C
729 26-05-2014 13:30:00 19.9 C 71 % 14.49 C
730 26-05-2014 13:35:00 19.9 C 72 % 14.7 C
731 26-05-2014 13:40:00 19.8 C 70 % 14.17 C
732 26-05-2014 13:45:00 19.6 C 71 % 14.2 C
733 26-05-2014 13:50:00 19.6 C 72 % 14.42 C
734 26-05-2014 13:55:00 19.6 C 72 % 14.42 C
735 26-05-2014 14:00:00 19.6 C 71 % 14.2 C
736 26-05-2014 14:05:00 19.7 C 72 % 14.51 C
737 26-05-2014 14:10:00 19.8 C 72 % 14.61 C
738 26-05-2014 14:15:00 20.1 C 71 % 14.68 C
739 26-05-2014 14:20:00 20.3 C 71 % 14.87 C
740 26-05-2014 14:25:00 20.6 C 69 % 14.71 C
741 26-05-2014 14:30:00 20.7 C 68 % 14.58 C
742 26-05-2014 14:35:00 20.9 C 66 % 14.31 C
743 26-05-2014 14:40:00 20.9 C 67 % 14.55 C
744 26-05-2014 14:45:00 20.9 C 65 % 14.08 C
745 26-05-2014 14:50:00 20.7 C 66 % 14.12 C
746 26-05-2014 14:55:00 20.8 C 68 % 14.68 C
747 26-05-2014 15:00:00 21 C 68 % 14.87 C
748 26-05-2014 15:05:00 21.2 C 67 % 14.83 C
749 26-05-2014 15:10:00 21.2 C 64 % 14.12 C
750 26-05-2014 15:15:00 21.2 C 65 % 14.36 C
Sensor: Nr:Datum:Temp:Feuchte:Taupunkt:
Aussen-T/F 751 26-05-2014 15:20:00 21.1 C 65 % 14.27 C
752 26-05-2014 15:25:00 21 C 65 % 14.17 C
753 26-05-2014 15:30:00 21 C 65 % 14.17 C
754 26-05-2014 15:35:00 21.1 C 66 % 14.5 C
755 26-05-2014 15:40:00 21.1 C 66 % 14.5 C
756 26-05-2014 15:45:00 21.2 C 64 % 14.12 C
757 26-05-2014 15:50:00 21.6 C 66 % 14.98 C
758 26-05-2014 15:55:00 21.6 C 64 % 14.5 C
759 26-05-2014 16:00:00 21.5 C 64 % 14.41 C
760 26-05-2014 16:05:00 21.6 C 65 % 14.74 C
761 26-05-2014 16:10:00 21.7 C 64 % 14.6 C
762 26-05-2014 16:15:00 21.7 C 65 % 14.84 C
763 26-05-2014 16:20:00 21.9 C 62 % 14.29 C
764 26-05-2014 16:25:00 22.1 C 64 % 14.97 C
765 26-05-2014 16:30:00 22.1 C 63 % 14.73 C
766 26-05-2014 16:35:00 22.1 C 64 % 14.97 C
767 26-05-2014 16:40:00 22.1 C 61 % 14.23 C
768 26-05-2014 16:45:00 22 C 63 % 14.63 C
769 26-05-2014 16:50:00 21.8 C 64 % 14.69 C
770 26-05-2014 16:55:00 21.8 C 65 % 14.93 C
771 26-05-2014 17:00:00 21.8 C 66 % 15.17 C
772 26-05-2014 17:05:00 21.9 C 65 % 15.02 C
773 26-05-2014 17:10:00 21.9 C 64 % 14.78 C
774 26-05-2014 17:15:00 21.9 C 63 % 14.54 C
775 26-05-2014 17:20:00 21.8 C 65 % 14.93 C
Sensor: Nr:Datum:Temp:Feuchte:Taupunkt:
Aussen-T/F 776 26-05-2014 17:25:00 21.6 C 63 % 14.26 C
777 26-05-2014 17:30:00 21.5 C 67 % 15.12 C
778 26-05-2014 17:35:00 21.4 C 71 % 15.93 C
779 26-05-2014 17:40:00 21.3 C 65 % 14.46 C
780 26-05-2014 17:45:00 21.3 C 66 % 14.69 C
781 26-05-2014 17:50:00 21.4 C 65 % 14.55 C
782 26-05-2014 17:55:00 21.5 C 68 % 15.35 C
783 26-05-2014 18:00:00 21.4 C 70 % 15.7 C
784 26-05-2014 18:05:00 21.3 C 70 % 15.61 C
785 26-05-2014 18:10:00 21.2 C 73 % 16.17 C
786 26-05-2014 18:15:00 20.9 C 74 % 16.09 C
787 26-05-2014 18:20:00 20.6 C 76 % 16.22 C
788 26-05-2014 18:25:00 20.5 C 76 % 16.12 C
789 26-05-2014 18:30:00 20.4 C 71 % 14.97 C
790 26-05-2014 18:35:00 20.4 C 70 % 14.75 C
791 26-05-2014 18:40:00 20.6 C 71 % 15.16 C
792 26-05-2014 18:45:00 20.6 C 72 % 15.38 C
793 26-05-2014 18:50:00 20.6 C 71 % 15.16 C
794 26-05-2014 18:55:00 20.6 C 72 % 15.38 C
795 26-05-2014 19:00:00 20.4 C 73 % 15.4 C
796 26-05-2014 19:05:00 20.3 C 74 % 15.51 C
797 26-05-2014 19:10:00 20.2 C 74 % 15.42 C
798 26-05-2014 19:15:00 20.1 C 76 % 15.74 C
799 26-05-2014 19:20:00 19.9 C 78 % 15.95 C
800 26-05-2014 19:25:00 19.8 C 78 % 15.85 C
Sensor: Nr:Datum:Temp:Feuchte:Taupunkt:
Aussen-T/F 801 26-05-2014 19:30:00 19.6 C 78 % 15.66 C
802 26-05-2014 19:35:00 19.6 C 80 % 16.06 C
803 26-05-2014 19:40:00 19.5 C 77 % 15.36 C
804 26-05-2014 19:45:00 19.4 C 80 % 15.86 C
805 26-05-2014 19:50:00 19.4 C 77 % 15.27 C
806 26-05-2014 19:55:00 19.4 C 78 % 15.47 C
807 26-05-2014 20:00:00 19.4 C 80 % 15.86 C
808 26-05-2014 20:05:00 19.3 C 80 % 15.76 C
809 26-05-2014 20:10:00 19.2 C 80 % 15.67 C
810 26-05-2014 20:15:00 19.1 C 78 % 15.18 C
811 26-05-2014 20:20:00 18.9 C 79 % 15.18 C
812 26-05-2014 20:25:00 18.7 C 79 % 14.99 C
813 26-05-2014 20:30:00 18.6 C 81 % 15.28 C
814 26-05-2014 20:35:00 18.3 C 83 % 15.36 C
815 26-05-2014 20:40:00 18.1 C 83 % 15.17 C
816 26-05-2014 20:45:00 17.9 C 83 % 14.97 C
817 26-05-2014 20:50:00 17.7 C 83 % 14.78 C
818 26-05-2014 20:55:00 17.7 C 83 % 14.78 C
819 26-05-2014 21:00:00 17.7 C 83 % 14.78 C
820 26-05-2014 21:05:00 17.6 C 83 % 14.68 C
821 26-05-2014 21:10:00 17.5 C 84 % 14.77 C
822 26-05-2014 21:15:00 17.4 C 84 % 14.67 C
823 26-05-2014 21:20:00 17.3 C 85 % 14.76 C
824 26-05-2014 21:25:00 17.3 C 86 % 14.94 C
825 26-05-2014 21:30:00 17.3 C 86 % 14.94 C
Sensor: Nr:Datum:Temp:Feuchte:Taupunkt:
Aussen-T/F 826 26-05-2014 21:35:00 17.3 C 86 % 14.94 C
827 26-05-2014 21:40:00 17.3 C 86 % 14.94 C
828 26-05-2014 21:45:00 17.3 C 86 % 14.94 C
829 26-05-2014 21:50:00 17.3 C 86 % 14.94 C
830 26-05-2014 21:55:00 17.3 C 85 % 14.76 C
831 26-05-2014 22:00:00 17.3 C 85 % 14.76 C
832 26-05-2014 22:05:00 17.4 C 84 % 14.67 C
833 26-05-2014 22:10:00 17.4 C 84 % 14.67 C
834 26-05-2014 22:15:00 17.5 C 84 % 14.77 C
835 26-05-2014 22:20:00 17.6 C 84 % 14.87 C
836 26-05-2014 22:25:00 17.6 C 86 % 15.23 C
837 26-05-2014 22:30:00 17.4 C 87 % 15.21 C
838 26-05-2014 22:35:00 17.3 C 88 % 15.29 C
839 26-05-2014 22:40:00 17.2 C 89 % 15.37 C
840 26-05-2014 22:45:00 17.1 C 89 % 15.27 C
841 26-05-2014 22:50:00 16.9 C 90 % 15.25 C
842 26-05-2014 22:55:00 16.8 C 90 % 15.15 C
843 26-05-2014 23:00:00 16.8 C 91 % 15.32 C
844 26-05-2014 23:05:00 16.7 C 91 % 15.22 C
845 26-05-2014 23:10:00 16.7 C 92 % 15.39 C
846 26-05-2014 23:15:00 16.6 C 92 % 15.3 C
847 26-05-2014 23:20:00 16.6 C 92 % 15.3 C
848 26-05-2014 23:25:00 16.5 C 93 % 15.36 C
849 26-05-2014 23:30:00 16.4 C 93 % 15.27 C
850 26-05-2014 23:35:00 16.3 C 93 % 15.17 C
Sensor: Nr:Datum:Temp:Feuchte:Taupunkt:
Aussen-T/F 851 26-05-2014 23:40:00 16.3 C 94 % 15.33 C
852 26-05-2014 23:45:00 16.3 C 94 % 15.33 C
853 26-05-2014 23:50:00 16.2 C 94 % 15.23 C
854 26-05-2014 23:55:00 16.2 C 94 % 15.23 C
855 27-05-2014 00:00:00 16.2 C 94 % 15.23 C
856 27-05-2014 00:40:00 15.8 C 95 % 15 C
857 27-05-2014 00:45:00 15.8 C 95 % 15 C
858 27-05-2014 00:50:00 15.7 C 95 % 14.9 C
859 27-05-2014 00:55:00 15.7 C 95 % 14.9 C
860 27-05-2014 01:00:00 15.7 C 95 % 14.9 C
861 27-05-2014 01:05:00 15.7 C 96 % 15.06 C
862 27-05-2014 01:10:00 15.6 C 96 % 14.96 C
863 27-05-2014 01:15:00 15.6 C 96 % 14.96 C
864 27-05-2014 01:20:00 15.4 C 96 % 14.77 C
865 27-05-2014 01:25:00 15.3 C 95 % 14.5 C
866 27-05-2014 01:30:00 15.2 C 95 % 14.4 C
867 27-05-2014 01:35:00 15.2 C 96 % 14.57 C
868 27-05-2014 01:40:00 15.1 C 96 % 14.47 C
869 27-05-2014 01:45:00 15.1 C 96 % 14.47 C
870 27-05-2014 01:50:00 15 C 96 % 14.37 C
871 27-05-2014 01:55:00 14.9 C 96 % 14.27 C
872 27-05-2014 02:00:00 14.9 C 96 % 14.27 C
873 27-05-2014 02:05:00 14.9 C 96 % 14.27 C
874 27-05-2014 02:10:00 14.8 C 96 % 14.17 C
875 27-05-2014 02:15:00 14.8 C 96 % 14.17 C
Sensor: Nr:Datum:Temp:Feuchte:Taupunkt:
Aussen-T/F 876 27-05-2014 02:20:00 14.8 C 96 % 14.17 C
877 27-05-2014 02:25:00 14.8 C 96 % 14.17 C
878 27-05-2014 02:30:00 14.8 C 96 % 14.17 C
879 27-05-2014 02:35:00 14.8 C 97 % 14.33 C
880 27-05-2014 02:40:00 14.8 C 97 % 14.33 C
881 27-05-2014 02:45:00 14.8 C 97 % 14.33 C
882 27-05-2014 02:50:00 14.8 C 97 % 14.33 C
883 27-05-2014 02:55:00 14.8 C 97 % 14.33 C
884 27-05-2014 03:00:00 14.8 C 97 % 14.33 C
885 27-05-2014 03:05:00 14.8 C 96 % 14.17 C
886 27-05-2014 03:10:00 14.8 C 96 % 14.17 C
887 27-05-2014 03:15:00 14.8 C 97 % 14.33 C
888 27-05-2014 03:20:00 14.8 C 97 % 14.33 C
889 27-05-2014 03:25:00 14.7 C 97 % 14.23 C
890 27-05-2014 03:30:00 14.7 C 97 % 14.23 C
891 27-05-2014 03:35:00 14.7 C 97 % 14.23 C
892 27-05-2014 03:40:00 14.7 C 97 % 14.23 C
893 27-05-2014 03:45:00 14.7 C 97 % 14.23 C
894 27-05-2014 03:50:00 14.7 C 97 % 14.23 C
895 27-05-2014 03:55:00 14.7 C 97 % 14.23 C
896 27-05-2014 04:00:00 14.7 C 97 % 14.23 C
897 27-05-2014 04:05:00 14.7 C 97 % 14.23 C
898 27-05-2014 04:10:00 14.7 C 97 % 14.23 C
899 27-05-2014 04:15:00 14.7 C 97 % 14.23 C
900 27-05-2014 04:20:00 14.7 C 97 % 14.23 C
Sensor: Nr:Datum:Temp:Feuchte:Taupunkt:
Aussen-T/F 901 27-05-2014 04:25:00 14.7 C 97 % 14.23 C
902 27-05-2014 04:30:00 14.7 C 97 % 14.23 C
903 27-05-2014 04:35:00 14.7 C 97 % 14.23 C
904 27-05-2014 04:40:00 14.7 C 97 % 14.23 C
905 27-05-2014 04:45:00 14.7 C 97 % 14.23 C
906 27-05-2014 04:50:00 14.6 C 97 % 14.13 C
907 27-05-2014 04:55:00 14.6 C 97 % 14.13 C
908 27-05-2014 05:00:00 14.6 C 97 % 14.13 C
909 27-05-2014 05:05:00 14.6 C 97 % 14.13 C
910 27-05-2014 05:10:00 14.5 C 97 % 14.03 C
911 27-05-2014 05:15:00 14.5 C 97 % 14.03 C
912 27-05-2014 05:20:00 14.5 C 97 % 14.03 C
913 27-05-2014 05:25:00 14.5 C 97 % 14.03 C
914 27-05-2014 05:30:00 14.4 C 97 % 13.93 C
915 27-05-2014 05:35:00 14.4 C 97 % 13.93 C
916 27-05-2014 05:40:00 14.3 C 97 % 13.83 C
917 27-05-2014 05:45:00 14.3 C 97 % 13.83 C
918 27-05-2014 05:50:00 14.3 C 97 % 13.83 C
919 27-05-2014 05:55:00 14.3 C 97 % 13.83 C
920 27-05-2014 06:00:00 14.3 C 97 % 13.83 C
921 27-05-2014 06:05:00 14.3 C 97 % 13.83 C
922 27-05-2014 06:10:00 14.4 C 97 % 13.93 C
923 27-05-2014 06:15:00 14.4 C 97 % 13.93 C
924 27-05-2014 06:20:00 14.4 C 97 % 13.93 C
925 27-05-2014 06:25:00 14.4 C 97 % 13.93 C
Sensor: Nr:Datum:Temp:Feuchte:Taupunkt:
Aussen-T/F 926 27-05-2014 06:30:00 14.4 C 97 % 13.93 C
927 27-05-2014 06:35:00 14.5 C 97 % 14.03 C
928 27-05-2014 06:40:00 14.6 C 97 % 14.13 C
929 27-05-2014 06:45:00 14.6 C 97 % 14.13 C
930 27-05-2014 06:50:00 14.6 C 97 % 14.13 C
931 27-05-2014 06:55:00 14.7 C 98 % 14.39 C
932 27-05-2014 07:00:00 14.7 C 98 % 14.39 C
933 27-05-2014 07:05:00 14.7 C 98 % 14.39 C
934 27-05-2014 07:10:00 14.7 C 98 % 14.39 C
935 27-05-2014 07:15:00 14.8 C 98 % 14.49 C
936 27-05-2014 07:20:00 14.8 C 98 % 14.49 C
937 27-05-2014 07:25:00 14.9 C 98 % 14.59 C
938 27-05-2014 07:30:00 14.9 C 98 % 14.59 C
939 27-05-2014 07:35:00 14.9 C 98 % 14.59 C
940 27-05-2014 07:40:00 15 C 98 % 14.69 C
941 27-05-2014 07:45:00 15 C 98 % 14.69 C
942 27-05-2014 07:50:00 15 C 98 % 14.69 C
943 27-05-2014 07:55:00 15.1 C 98 % 14.79 C
944 27-05-2014 08:00:00 15 C 98 % 14.69 C
945 27-05-2014 08:05:00 14.9 C 98 % 14.59 C
946 27-05-2014 08:10:00 14.9 C 97 % 14.43 C
947 27-05-2014 08:15:00 14.9 C 97 % 14.43 C
948 27-05-2014 08:20:00 15 C 97 % 14.53 C
949 27-05-2014 08:25:00 14.9 C 97 % 14.43 C
950 27-05-2014 08:30:00 14.9 C 97 % 14.43 C
Sensor: Nr:Datum:Temp:Feuchte:Taupunkt:
Aussen-T/F 951 27-05-2014 08:35:00 15 C 97 % 14.53 C
952 27-05-2014 08:40:00 15.1 C 97 % 14.63 C
953 27-05-2014 08:45:00 15 C 97 % 14.53 C
954 27-05-2014 08:50:00 15 C 97 % 14.53 C
955 27-05-2014 08:55:00 14.9 C 97 % 14.43 C
956 27-05-2014 09:00:00 14.9 C 97 % 14.43 C
957 27-05-2014 09:05:00 14.8 C 97 % 14.33 C
958 27-05-2014 09:10:00 14.8 C 97 % 14.33 C
959 27-05-2014 09:15:00 14.8 C 97 % 14.33 C
960 27-05-2014 09:20:00 14.7 C 96 % 14.07 C
961 27-05-2014 09:25:00 14.7 C 96 % 14.07 C
962 27-05-2014 09:30:00 14.7 C 96 % 14.07 C
963 27-05-2014 09:35:00 14.7 C 96 % 14.07 C
964 27-05-2014 09:40:00 14.7 C 96 % 14.07 C
965 27-05-2014 09:45:00 14.7 C 96 % 14.07 C
966 27-05-2014 09:50:00 14.8 C 96 % 14.17 C
967 27-05-2014 09:55:00 14.8 C 96 % 14.17 C
968 27-05-2014 10:00:00 14.9 C 96 % 14.27 C
969 27-05-2014 10:05:00 14.8 C 95 % 14.01 C
970 27-05-2014 10:10:00 14.8 C 95 % 14.01 C
971 27-05-2014 10:15:00 14.8 C 95 % 14.01 C
972 27-05-2014 10:20:00 14.8 C 95 % 14.01 C
973 27-05-2014 10:25:00 14.8 C 95 % 14.01 C
974 27-05-2014 10:30:00 14.8 C 95 % 14.01 C
975 27-05-2014 10:35:00 14.9 C 95 % 14.11 C
Sensor: Nr:Datum:Temp:Feuchte:Taupunkt:
Aussen-T/F 976 27-05-2014 10:40:00 14.9 C 95 % 14.11 C
977 27-05-2014 10:45:00 15 C 95 % 14.21 C
978 27-05-2014 10:50:00 15.1 C 95 % 14.31 C
979 27-05-2014 10:55:00 15.2 C 95 % 14.4 C
980 27-05-2014 11:00:00 15.3 C 95 % 14.5 C
981 27-05-2014 11:05:00 15.4 C 95 % 14.6 C
982 27-05-2014 11:10:00 15.4 C 95 % 14.6 C
983 27-05-2014 11:15:00 15.4 C 94 % 14.44 C
984 27-05-2014 11:20:00 15.4 C 94 % 14.44 C
985 27-05-2014 11:25:00 15.4 C 93 % 14.27 C
986 27-05-2014 11:30:00 15.4 C 93 % 14.27 C
987 27-05-2014 11:35:00 15.4 C 94 % 14.44 C
988 27-05-2014 11:40:00 15.4 C 94 % 14.44 C
989 27-05-2014 11:45:00 15.4 C 94 % 14.44 C
990 27-05-2014 11:50:00 15.3 C 94 % 14.34 C
991 27-05-2014 11:55:00 15.2 C 94 % 14.24 C
992 27-05-2014 12:00:00 15.2 C 94 % 14.24 C
993 27-05-2014 12:05:00 15.2 C 93 % 14.08 C
994 27-05-2014 12:10:00 15.2 C 94 % 14.24 C
995 27-05-2014 12:15:00 15.2 C 94 % 14.24 C
996 27-05-2014 12:20:00 15.3 C 93 % 14.18 C
997 27-05-2014 12:25:00 15.4 C 93 % 14.27 C
998 27-05-2014 12:30:00 15.6 C 92 % 14.31 C
999 27-05-2014 12:35:00 15.7 C 91 % 14.24 C
1000 27-05-2014 12:40:00 15.8 C 91 % 14.33 C
Sensor: Nr:Datum:Temp:Feuchte:Taupunkt:
Aussen-T/F 1001 27-05-2014 12:45:00 15.9 C 91 % 14.43 C
1002 27-05-2014 12:50:00 16.1 C 91 % 14.63 C
1003 27-05-2014 12:55:00 16.3 C 90 % 14.66 C
1004 27-05-2014 13:00:00 16.6 C 90 % 14.95 C
1005 27-05-2014 13:05:00 16.9 C 91 % 15.42 C
1006 27-05-2014 13:10:00 17.2 C 90 % 15.55 C
1007 27-05-2014 13:15:00 17.3 C 87 % 15.12 C
1008 27-05-2014 13:20:00 17.5 C 87 % 15.31 C
1009 27-05-2014 13:25:00 17.6 C 84 % 14.87 C
1010 27-05-2014 13:30:00 17.6 C 85 % 15.05 C
1011 27-05-2014 13:35:00 17.6 C 85 % 15.05 C
1012 27-05-2014 13:40:00 17.6 C 85 % 15.05 C
1013 27-05-2014 13:45:00 17.6 C 85 % 15.05 C
1014 27-05-2014 14:10:00 18.4 C 100 % 18.4 C
1015 27-05-2014 14:15:00 18.4 C 100 % 18.4 C
1016 27-05-2014 15:30:00 16.5 C 84 % 13.79 C
1017 27-05-2014 15:35:00 16.5 C 84 % 13.79 C
1018 27-05-2014 15:40:00 16.3 C 84 % 13.59 C
1019 27-05-2014 15:45:00 16.3 C 84 % 13.59 C
1020 27-05-2014 15:50:00 16.3 C 84 % 13.59 C
1021 27-05-2014 15:55:00 16.3 C 84 % 13.59 C
1022 27-05-2014 16:00:00 16.2 C 84 % 13.5 C
1023 27-05-2014 16:05:00 16.2 C 84 % 13.5 C
1024 27-05-2014 16:10:00 16.2 C 84 % 13.5 C
1025 27-05-2014 16:15:00 16.2 C 86 % 13.86 C
Sensor: Nr:Datum:Temp:Feuchte:Taupunkt:
Aussen-T/F 1026 27-05-2014 16:20:00 16.2 C 86 % 13.86 C
1027 27-05-2014 17:00:00 15.4 C 93 % 14.27 C
1028 27-05-2014 17:05:00 15.3 C 94 % 14.34 C
1029 27-05-2014 17:10:00 15.3 C 94 % 14.34 C
1030 27-05-2014 17:15:00 15.3 C 94 % 14.34 C
1031 27-05-2014 17:35:00 15.3 C 95 % 14.5 C
1032 27-05-2014 17:40:00 15.3 C 94 % 14.34 C
1033 27-05-2014 17:45:00 15.3 C 94 % 14.34 C
1034 27-05-2014 18:10:00 16.4 C 100 % 16.4 C
1035 27-05-2014 18:15:00 16.4 C 100 % 16.4 C
1036 27-05-2014 18:20:00 16.4 C 100 % 16.4 C
1037 27-05-2014 18:25:00 16.4 C 100 % 16.4 C
1038 27-05-2014 19:35:00 15.3 C 100 % 15.3 C
1039 27-05-2014 19:40:00 15.4 C 96 % 14.77 C
1040 27-05-2014 19:45:00 15.4 C 96 % 14.77 C
1041 27-05-2014 19:50:00 15.4 C 96 % 14.77 C
1042 27-05-2014 19:55:00 15.4 C 96 % 14.77 C
1043 27-05-2014 20:00:00 15.4 C 96 % 14.77 C
1044 27-05-2014 20:05:00 15.4 C 96 % 14.77 C
1045 27-05-2014 20:10:00 15.3 C 96 % 14.67 C
1046 27-05-2014 20:15:00 15.3 C 96 % 14.67 C
1047 27-05-2014 20:20:00 15.3 C 96 % 14.67 C
1048 27-05-2014 20:25:00 15.2 C 96 % 14.57 C
1049 27-05-2014 20:30:00 15.1 C 96 % 14.47 C
1050 27-05-2014 20:35:00 14.9 C 95 % 14.11 C
Sensor: Nr:Datum:Temp:Feuchte:Taupunkt:
Aussen-T/F 1051 27-05-2014 20:40:00 14.8 C 93 % 13.68 C
1052 27-05-2014 20:45:00 14.8 C 92 % 13.51 C
1053 27-05-2014 20:50:00 14.8 C 91 % 13.35 C
1054 27-05-2014 20:55:00 14.8 C 92 % 13.51 C
1055 27-05-2014 21:00:00 14.8 C 92 % 13.51 C
1056 27-05-2014 21:05:00 14.6 C 92 % 13.32 C
1057 27-05-2014 21:10:00 14.6 C 92 % 13.32 C
1058 27-05-2014 21:15:00 14.5 C 91 % 13.05 C
1059 27-05-2014 21:20:00 14.5 C 91 % 13.05 C
1060 27-05-2014 21:25:00 14.6 C 90 % 12.98 C
1061 27-05-2014 21:30:00 14.6 C 92 % 13.32 C
1062 27-05-2014 21:35:00 14.4 C 92 % 13.12 C
1063 27-05-2014 21:40:00 14.4 C 91 % 12.95 C
1064 27-05-2014 21:45:00 14.4 C 91 % 12.95 C
1065 27-05-2014 21:50:00 14.4 C 91 % 12.95 C
1066 28-05-2014 10:35:00 15.6 C 100 % 15.6 C
1067 28-05-2014 10:40:00 15.6 C 100 % 15.6 C
1068 28-05-2014 10:45:00 15.6 C 100 % 15.6 C
1069 28-05-2014 10:50:00 15.6 C 100 % 15.6 C
1070 28-05-2014 10:55:00 15.6 C 100 % 15.6 C
1071 28-05-2014 11:00:00 15.6 C 100 % 15.6 C
1072 28-05-2014 11:05:00 15.6 C 100 % 15.6 C
1073 28-05-2014 17:30:00 16.7 C 73 % 11.84 C
1074 28-05-2014 17:35:00 16.4 C 83 % 13.51 C
1075 28-05-2014 17:40:00 16.3 C 84 % 13.59 C
Sensor: Nr:Datum:Temp:Feuchte:Taupunkt:
Aussen-T/F 1076 28-05-2014 17:45:00 16.2 C 82 % 13.13 C
1077 28-05-2014 17:50:00 16.2 C 81 % 12.94 C
1078 28-05-2014 17:55:00 16.3 C 84 % 13.59 C
1079 28-05-2014 18:00:00 16.4 C 83 % 13.51 C
1080 28-05-2014 18:05:00 16.6 C 81 % 13.33 C
1081 28-05-2014 18:10:00 16.8 C 79 % 13.14 C
1082 28-05-2014 18:15:00 17.1 C 77 % 13.04 C
1083 28-05-2014 18:20:00 17.2 C 79 % 13.53 C
1084 28-05-2014 18:25:00 17.2 C 81 % 13.91 C
1085 28-05-2014 18:30:00 17.1 C 76 % 12.84 C
1086 28-05-2014 18:35:00 17.1 C 81 % 13.82 C
1087 28-05-2014 18:40:00 16.9 C 81 % 13.62 C
1088 28-05-2014 18:45:00 16.7 C 84 % 13.98 C
1089 28-05-2014 18:50:00 16.4 C 85 % 13.87 C
1090 28-05-2014 18:55:00 16.3 C 85 % 13.77 C
1091 28-05-2014 19:00:00 16.3 C 85 % 13.77 C
1092 28-05-2014 19:05:00 16.3 C 84 % 13.59 C
1093 28-05-2014 19:10:00 16.2 C 85 % 13.68 C
1094 28-05-2014 19:15:00 16.1 C 86 % 13.76 C
1095 28-05-2014 19:20:00 16.1 C 85 % 13.58 C
1096 28-05-2014 19:25:00 16.1 C 85 % 13.58 C
1097 28-05-2014 19:30:00 16.2 C 86 % 13.86 C
1098 28-05-2014 19:35:00 16.2 C 83 % 13.31 C
1099 28-05-2014 19:40:00 16.2 C 84 % 13.5 C
1100 28-05-2014 19:45:00 16.1 C 84 % 13.4 C
Sensor: Nr:Datum:Temp:Feuchte:Taupunkt:
Aussen-T/F 1101 28-05-2014 19:50:00 16 C 78 % 12.17 C
1102 28-05-2014 19:55:00 16.1 C 83 % 13.21 C
1103 28-05-2014 20:00:00 16.1 C 85 % 13.58 C
1104 28-05-2014 20:05:00 15.9 C 84 % 13.2 C
1105 28-05-2014 20:10:00 15.7 C 85 % 13.19 C
1106 28-05-2014 20:15:00 15.6 C 86 % 13.27 C
1107 28-05-2014 20:20:00 15.3 C 87 % 13.15 C
1108 28-05-2014 20:25:00 15.2 C 86 % 12.88 C
1109 28-05-2014 20:30:00 15.2 C 88 % 13.23 C
1110 28-05-2014 20:35:00 15.2 C 88 % 13.23 C
1111 28-05-2014 20:40:00 15.1 C 89 % 13.3 C
1112 28-05-2014 20:45:00 14.9 C 89 % 13.1 C
1113 28-05-2014 20:50:00 14.7 C 89 % 12.91 C
1114 28-05-2014 20:55:00 14.5 C 89 % 12.71 C
1115 28-05-2014 21:00:00 14.3 C 89 % 12.51 C
1116 28-05-2014 21:05:00 14.1 C 89 % 12.32 C
1117 28-05-2014 21:10:00 13.9 C 89 % 12.12 C
1118 28-05-2014 21:15:00 13.7 C 89 % 11.92 C
1119 28-05-2014 21:20:00 13.6 C 90 % 11.99 C
1120 28-05-2014 21:25:00 13.4 C 90 % 11.79 C
1121 28-05-2014 21:30:00 13.3 C 91 % 11.86 C
1122 28-05-2014 21:35:00 13.2 C 90 % 11.6 C
1123 28-05-2014 21:40:00 13.1 C 90 % 11.5 C
1124 28-05-2014 21:45:00 13.1 C 90 % 11.5 C
1125 28-05-2014 21:50:00 13 C 91 % 11.57 C
Sensor: Nr:Datum:Temp:Feuchte:Taupunkt:
Aussen-T/F 1126 28-05-2014 21:55:00 12.9 C 91 % 11.47 C
1127 28-05-2014 22:00:00 12.9 C 92 % 11.63 C
1128 28-05-2014 22:05:00 12.8 C 92 % 11.53 C
1129 28-05-2014 22:10:00 12.8 C 92 % 11.53 C
1130 28-05-2014 22:15:00 12.7 C 92 % 11.43 C
1131 28-05-2014 22:20:00 12.6 C 92 % 11.34 C
1132 28-05-2014 22:25:00 12.6 C 92 % 11.34 C
1133 28-05-2014 22:30:00 12.5 C 92 % 11.24 C
1134 28-05-2014 22:35:00 12.4 C 92 % 11.14 C
1135 28-05-2014 22:40:00 12.4 C 93 % 11.3 C
1136 28-05-2014 22:45:00 12.3 C 93 % 11.2 C
1137 28-05-2014 22:50:00 12.3 C 92 % 11.04 C
1138 28-05-2014 22:55:00 12.2 C 92 % 10.94 C
1139 28-05-2014 23:00:00 12.1 C 92 % 10.84 C
1140 28-05-2014 23:05:00 12.1 C 92 % 10.84 C
1141 28-05-2014 23:10:00 11.9 C 92 % 10.64 C
1142 28-05-2014 23:15:00 11.9 C 93 % 10.81 C
1143 28-05-2014 23:20:00 11.8 C 93 % 10.71 C
1144 28-05-2014 23:25:00 11.8 C 93 % 10.71 C
1145 28-05-2014 23:30:00 11.7 C 93 % 10.61 C
1146 28-05-2014 23:35:00 11.7 C 94 % 10.77 C
1147 28-05-2014 23:40:00 11.6 C 93 % 10.51 C
1148 28-05-2014 23:45:00 11.5 C 94 % 10.57 C
1149 28-05-2014 23:50:00 11.4 C 94 % 10.47 C
1150 28-05-2014 23:55:00 11.4 C 94 % 10.47 C
Sensor: Nr:Datum:Temp:Feuchte:Taupunkt:
Aussen-T/F 1151 29-05-2014 00:00:00 11.4 C 94 % 10.47 C
1152 29-05-2014 00:05:00 11.4 C 94 % 10.47 C
1153 29-05-2014 00:10:00 11.3 C 94 % 10.37 C
1154 29-05-2014 00:15:00 11.2 C 94 % 10.27 C
1155 29-05-2014 00:20:00 11.1 C 94 % 10.17 C
1156 29-05-2014 00:25:00 11.1 C 95 % 10.33 C
1157 29-05-2014 00:30:00 11.1 C 95 % 10.33 C
1158 29-05-2014 00:35:00 11.1 C 95 % 10.33 C
1159 29-05-2014 00:40:00 11.1 C 95 % 10.33 C
1160 29-05-2014 00:45:00 11.1 C 95 % 10.33 C
1161 29-05-2014 00:50:00 11.1 C 95 % 10.33 C
1162 29-05-2014 00:55:00 11 C 95 % 10.23 C
1163 29-05-2014 01:00:00 10.9 C 95 % 10.13 C
1164 29-05-2014 01:05:00 10.9 C 95 % 10.13 C
1165 29-05-2014 01:10:00 10.8 C 95 % 10.03 C
1166 29-05-2014 01:15:00 10.8 C 95 % 10.03 C
1167 29-05-2014 01:20:00 10.7 C 95 % 9.93 C
1168 29-05-2014 01:25:00 10.7 C 95 % 9.93 C
1169 29-05-2014 01:30:00 10.6 C 95 % 9.83 C
1170 29-05-2014 01:35:00 10.6 C 95 % 9.83 C
1171 29-05-2014 01:40:00 10.5 C 95 % 9.73 C
1172 29-05-2014 01:45:00 10.4 C 96 % 9.79 C
1173 29-05-2014 01:50:00 10.4 C 95 % 9.63 C
1174 29-05-2014 01:55:00 10.3 C 96 % 9.69 C
1175 29-05-2014 02:00:00 10.3 C 96 % 9.69 C
Sensor: Nr:Datum:Temp:Feuchte:Taupunkt:
Aussen-T/F 1176 29-05-2014 02:05:00 10.3 C 96 % 9.69 C
1177 29-05-2014 02:10:00 10.3 C 96 % 9.69 C
1178 29-05-2014 02:15:00 10.2 C 96 % 9.59 C
1179 29-05-2014 02:20:00 10.2 C 96 % 9.59 C
1180 29-05-2014 02:25:00 10.1 C 96 % 9.49 C
1181 29-05-2014 02:30:00 10.2 C 96 % 9.59 C
1182 29-05-2014 02:35:00 10.1 C 96 % 9.49 C
1183 29-05-2014 02:40:00 10.1 C 96 % 9.49 C
1184 29-05-2014 02:45:00 10.1 C 96 % 9.49 C
1185 29-05-2014 02:50:00 9.9 C 96 % 9.29 C
1186 29-05-2014 02:55:00 9.9 C 96 % 9.29 C
1187 29-05-2014 03:00:00 9.9 C 96 % 9.29 C
1188 29-05-2014 03:05:00 9.9 C 96 % 9.29 C
1189 29-05-2014 03:10:00 9.9 C 96 % 9.29 C
1190 29-05-2014 03:15:00 9.9 C 96 % 9.29 C
1191 29-05-2014 03:20:00 9.9 C 96 % 9.29 C
1192 29-05-2014 03:25:00 9.9 C 96 % 9.29 C
1193 29-05-2014 03:30:00 9.9 C 96 % 9.29 C
1194 29-05-2014 03:35:00 9.9 C 96 % 9.29 C
1195 29-05-2014 03:40:00 9.8 C 96 % 9.19 C
1196 29-05-2014 03:45:00 9.8 C 96 % 9.19 C
1197 29-05-2014 03:50:00 9.7 C 96 % 9.09 C
1198 29-05-2014 03:55:00 9.6 C 96 % 8.99 C
1199 29-05-2014 04:00:00 9.6 C 96 % 8.99 C
1200 29-05-2014 04:05:00 9.6 C 96 % 8.99 C
Sensor: Nr:Datum:Temp:Feuchte:Taupunkt:
Aussen-T/F 1201 29-05-2014 04:10:00 9.5 C 96 % 8.89 C
1202 29-05-2014 04:15:00 9.6 C 97 % 9.15 C
1203 29-05-2014 04:20:00 9.7 C 97 % 9.25 C
1204 29-05-2014 04:25:00 9.8 C 97 % 9.35 C
1205 29-05-2014 04:30:00 9.8 C 97 % 9.35 C
1206 29-05-2014 04:35:00 9.9 C 97 % 9.45 C
1207 29-05-2014 04:40:00 9.9 C 97 % 9.45 C
1208 29-05-2014 04:45:00 9.9 C 97 % 9.45 C
1209 29-05-2014 04:50:00 9.8 C 96 % 9.19 C
1210 29-05-2014 04:55:00 9.7 C 97 % 9.25 C
1211 29-05-2014 05:00:00 9.7 C 97 % 9.25 C
1212 29-05-2014 05:05:00 9.7 C 96 % 9.09 C
1213 29-05-2014 05:10:00 9.6 C 96 % 8.99 C
1214 29-05-2014 05:15:00 9.6 C 96 % 8.99 C
1215 29-05-2014 05:20:00 9.6 C 96 % 8.99 C
1216 29-05-2014 05:25:00 9.6 C 96 % 8.99 C
1217 29-05-2014 05:30:00 9.4 C 96 % 8.8 C
1218 29-05-2014 05:35:00 9.4 C 97 % 8.95 C
1219 29-05-2014 05:40:00 9.4 C 97 % 8.95 C
1220 29-05-2014 05:45:00 9.4 C 97 % 8.95 C
1221 29-05-2014 05:50:00 9.4 C 97 % 8.95 C
1222 29-05-2014 05:55:00 9.4 C 97 % 8.95 C
1223 29-05-2014 06:00:00 9.5 C 97 % 9.05 C
1224 29-05-2014 06:05:00 9.5 C 97 % 9.05 C
1225 29-05-2014 06:10:00 9.4 C 97 % 8.95 C
Sensor: Nr:Datum:Temp:Feuchte:Taupunkt:
Aussen-T/F 1226 29-05-2014 06:15:00 9.4 C 97 % 8.95 C
1227 29-05-2014 06:20:00 9.4 C 97 % 8.95 C
1228 29-05-2014 06:25:00 9.5 C 97 % 9.05 C
1229 29-05-2014 06:30:00 9.5 C 97 % 9.05 C
1230 29-05-2014 06:35:00 9.6 C 97 % 9.15 C
1231 29-05-2014 06:40:00 9.6 C 97 % 9.15 C
1232 29-05-2014 06:45:00 9.6 C 97 % 9.15 C
1233 29-05-2014 06:50:00 9.6 C 97 % 9.15 C
1234 29-05-2014 06:55:00 9.7 C 97 % 9.25 C
1235 29-05-2014 07:00:00 9.6 C 97 % 9.15 C
1236 29-05-2014 07:05:00 9.7 C 97 % 9.25 C
1237 29-05-2014 07:10:00 9.7 C 97 % 9.25 C
1238 29-05-2014 07:15:00 9.7 C 97 % 9.25 C
1239 29-05-2014 07:20:00 9.7 C 97 % 9.25 C
1240 29-05-2014 07:25:00 9.7 C 97 % 9.25 C
1241 29-05-2014 07:30:00 9.7 C 97 % 9.25 C
1242 29-05-2014 07:35:00 9.7 C 97 % 9.25 C
1243 29-05-2014 07:40:00 9.7 C 97 % 9.25 C
1244 29-05-2014 07:45:00 9.8 C 97 % 9.35 C
1245 29-05-2014 07:50:00 9.8 C 97 % 9.35 C
1246 29-05-2014 07:55:00 9.9 C 97 % 9.45 C
1247 29-05-2014 08:00:00 9.9 C 97 % 9.45 C
1248 29-05-2014 08:05:00 10.1 C 97 % 9.65 C
1249 29-05-2014 08:10:00 10.1 C 97 % 9.65 C
1250 29-05-2014 08:15:00 10.1 C 97 % 9.65 C
Sensor: Nr:Datum:Temp:Feuchte:Taupunkt:
Aussen-T/F 1251 29-05-2014 08:20:00 10.3 C 97 % 9.85 C
1252 29-05-2014 08:25:00 10.4 C 97 % 9.94 C
1253 29-05-2014 08:30:00 10.4 C 97 % 9.94 C
1254 29-05-2014 08:35:00 10.6 C 97 % 10.14 C
1255 29-05-2014 08:40:00 10.7 C 97 % 10.24 C
1256 29-05-2014 08:45:00 10.8 C 97 % 10.34 C
1257 29-05-2014 08:50:00 10.9 C 96 % 10.29 C
1258 29-05-2014 08:55:00 10.9 C 96 % 10.29 C
1259 29-05-2014 09:00:00 11.1 C 96 % 10.49 C
1260 29-05-2014 09:05:00 11.2 C 96 % 10.59 C
1261 29-05-2014 09:10:00 11.2 C 96 % 10.59 C
1262 29-05-2014 09:15:00 11.3 C 95 % 10.53 C
1263 29-05-2014 09:20:00 11.5 C 95 % 10.73 C
1264 29-05-2014 09:25:00 11.7 C 95 % 10.93 C
1265 29-05-2014 09:30:00 11.8 C 95 % 11.03 C
1266 29-05-2014 09:35:00 12.1 C 94 % 11.16 C
1267 29-05-2014 09:40:00 12.2 C 94 % 11.26 C
1268 29-05-2014 09:45:00 12.3 C 93 % 11.2 C
1269 29-05-2014 09:50:00 12.6 C 93 % 11.5 C
1270 29-05-2014 09:55:00 12.8 C 93 % 11.7 C
1271 29-05-2014 10:00:00 12.9 C 93 % 11.8 C
1272 29-05-2014 10:05:00 13.2 C 92 % 11.93 C
1273 29-05-2014 10:10:00 13.3 C 91 % 11.86 C
1274 29-05-2014 10:15:00 13.4 C 91 % 11.96 C
1275 29-05-2014 10:20:00 13.6 C 91 % 12.16 C
Sensor: Nr:Datum:Temp:Feuchte:Taupunkt:
Aussen-T/F 1276 29-05-2014 10:25:00 13.8 C 91 % 12.36 C
1277 29-05-2014 10:30:00 14.1 C 90 % 12.49 C
1278 29-05-2014 10:35:00 14.2 C 90 % 12.58 C
1279 29-05-2014 10:40:00 14.5 C 89 % 12.71 C
1280 29-05-2014 10:45:00 14.7 C 89 % 12.91 C
1281 29-05-2014 10:50:00 14.9 C 88 % 12.93 C
1282 29-05-2014 10:55:00 15.1 C 87 % 12.95 C
1283 29-05-2014 11:00:00 15.2 C 87 % 13.05 C
1284 29-05-2014 11:05:00 15.2 C 85 % 12.7 C
1285 29-05-2014 11:10:00 15.3 C 85 % 12.79 C
1286 29-05-2014 11:15:00 15.4 C 84 % 12.71 C
1287 29-05-2014 11:20:00 15.6 C 84 % 12.91 C
1288 29-05-2014 11:25:00 15.7 C 83 % 12.82 C
1289 29-05-2014 11:30:00 15.9 C 85 % 13.38 C
1290 29-05-2014 11:35:00 16.2 C 85 % 13.68 C
1291 29-05-2014 11:40:00 16.3 C 83 % 13.41 C
1292 29-05-2014 11:45:00 16.4 C 81 % 13.13 C
1293 29-05-2014 11:50:00 16.6 C 81 % 13.33 C
1294 29-05-2014 11:55:00 16.7 C 81 % 13.43 C
1295 29-05-2014 12:00:00 16.9 C 79 % 13.24 C
1296 29-05-2014 12:05:00 17.1 C 79 % 13.43 C
1297 29-05-2014 12:10:00 17.2 C 80 % 13.72 C
1298 29-05-2014 12:15:00 17.3 C 78 % 13.43 C
1299 29-05-2014 12:20:00 17.5 C 79 % 13.82 C
1300 29-05-2014 12:25:00 17.5 C 76 % 13.23 C
Sensor: Nr:Datum:Temp:Feuchte:Taupunkt:
Aussen-T/F 1301 29-05-2014 12:30:00 17.8 C 77 % 13.72 C
1302 29-05-2014 12:35:00 17.8 C 75 % 13.31 C
1303 29-05-2014 12:40:00 17.8 C 74 % 13.11 C
1304 29-05-2014 12:45:00 17.7 C 73 % 12.8 C
1305 29-05-2014 12:50:00 17.7 C 73 % 12.8 C
1306 29-05-2014 12:55:00 17.8 C 76 % 13.52 C
1307 29-05-2014 13:00:00 17.9 C 75 % 13.41 C
1308 29-05-2014 13:05:00 18.2 C 73 % 13.28 C
1309 29-05-2014 13:10:00 18.4 C 71 % 13.05 C
1310 29-05-2014 13:15:00 18.7 C 70 % 13.12 C
1311 29-05-2014 13:20:00 18.9 C 68 % 12.87 C
1312 29-05-2014 13:25:00 19.1 C 69 % 13.28 C
1313 29-05-2014 13:30:00 19.3 C 70 % 13.69 C
1314 29-05-2014 13:35:00 19.4 C 68 % 13.34 C
1315 29-05-2014 13:40:00 19.2 C 69 % 13.38 C
1316 29-05-2014 13:45:00 19.1 C 69 % 13.28 C
1317 29-05-2014 13:50:00 19.1 C 69 % 13.28 C
1318 29-05-2014 13:55:00 19.1 C 69 % 13.28 C
1319 29-05-2014 14:00:00 19.2 C 69 % 13.38 C
1320 29-05-2014 14:05:00 19.2 C 67 % 12.93 C
1321 29-05-2014 14:10:00 19.1 C 68 % 13.06 C
1322 29-05-2014 14:15:00 19 C 68 % 12.96 C
1323 29-05-2014 14:20:00 18.9 C 69 % 13.09 C
1324 29-05-2014 14:25:00 18.8 C 68 % 12.77 C
1325 29-05-2014 14:30:00 18.8 C 69 % 13 C
Sensor: Nr:Datum:Temp:Feuchte:Taupunkt:
Aussen-T/F 1326 29-05-2014 14:35:00 18.8 C 69 % 13 C
1327 29-05-2014 14:40:00 18.7 C 69 % 12.9 C
1328 29-05-2014 14:45:00 18.5 C 71 % 13.15 C
1329 29-05-2014 14:50:00 18.4 C 71 % 13.05 C
1330 29-05-2014 14:55:00 18.4 C 71 % 13.05 C
1331 29-05-2014 15:00:00 18.3 C 72 % 13.17 C
1332 29-05-2014 15:05:00 18.2 C 72 % 13.07 C
1333 29-05-2014 15:10:00 18.2 C 72 % 13.07 C
1334 29-05-2014 15:15:00 18.2 C 73 % 13.28 C
1335 29-05-2014 15:20:00 18.2 C 71 % 12.86 C
1336 29-05-2014 15:25:00 18.1 C 71 % 12.76 C
1337 29-05-2014 15:30:00 18.1 C 71 % 12.76 C
1338 29-05-2014 15:35:00 17.9 C 70 % 12.35 C
1339 29-05-2014 15:40:00 17.7 C 71 % 12.38 C
1340 29-05-2014 15:45:00 17.5 C 72 % 12.4 C
1341 29-05-2014 15:50:00 17.3 C 72 % 12.21 C
1342 29-05-2014 15:55:00 17.2 C 72 % 12.11 C
1343 29-05-2014 16:00:00 17.1 C 73 % 12.23 C
1344 29-05-2014 16:05:00 17.1 C 73 % 12.23 C
1345 29-05-2014 16:10:00 17 C 73 % 12.13 C
1346 29-05-2014 16:15:00 17 C 75 % 12.54 C
1347 29-05-2014 16:20:00 16.9 C 75 % 12.44 C
1348 29-05-2014 16:25:00 16.9 C 75 % 12.44 C
1349 29-05-2014 16:30:00 16.9 C 74 % 12.24 C
1350 29-05-2014 16:35:00 16.8 C 74 % 12.14 C
Sensor: Nr:Datum:Temp:Feuchte:Taupunkt:
Aussen-T/F 1351 29-05-2014 16:40:00 16.7 C 74 % 12.05 C
1352 29-05-2014 16:45:00 16.7 C 75 % 12.25 C
1353 29-05-2014 16:50:00 16.7 C 75 % 12.25 C
1354 29-05-2014 16:55:00 16.7 C 76 % 12.45 C
1355 29-05-2014 17:00:00 16.7 C 76 % 12.45 C
1356 29-05-2014 17:05:00 16.6 C 76 % 12.36 C
1357 29-05-2014 17:10:00 16.6 C 76 % 12.36 C
1358 29-05-2014 17:15:00 16.5 C 75 % 12.06 C
1359 29-05-2014 17:20:00 16.5 C 76 % 12.26 C
1360 29-05-2014 17:25:00 16.4 C 75 % 11.96 C
1361 29-05-2014 17:30:00 16.4 C 76 % 12.16 C
1362 29-05-2014 17:35:00 16.3 C 77 % 12.26 C
1363 29-05-2014 17:40:00 16.3 C 78 % 12.46 C
1364 29-05-2014 17:45:00 16.3 C 77 % 12.26 C
1365 29-05-2014 17:50:00 16.2 C 77 % 12.17 C
1366 29-05-2014 17:55:00 16.1 C 77 % 12.07 C
1367 29-05-2014 18:00:00 16 C 78 % 12.17 C
1368 29-05-2014 18:05:00 15.9 C 79 % 12.27 C
1369 29-05-2014 18:10:00 15.9 C 78 % 12.07 C
1370 29-05-2014 18:15:00 15.8 C 78 % 11.97 C
1371 29-05-2014 18:20:00 15.7 C 79 % 12.07 C
1372 29-05-2014 18:25:00 15.7 C 79 % 12.07 C
1373 29-05-2014 18:30:00 15.6 C 79 % 11.97 C
1374 29-05-2014 18:35:00 15.6 C 80 % 12.16 C
1375 29-05-2014 18:40:00 15.6 C 82 % 12.54 C
Sensor: Nr:Datum:Temp:Feuchte:Taupunkt:
Aussen-T/F 1376 29-05-2014 18:45:00 15.4 C 82 % 12.35 C
1377 29-05-2014 18:50:00 15.3 C 83 % 12.43 C
1378 29-05-2014 18:55:00 15.3 C 84 % 12.61 C
1379 29-05-2014 19:00:00 15.2 C 86 % 12.88 C
1380 29-05-2014 19:05:00 15.1 C 84 % 12.42 C
1381 29-05-2014 19:10:00 14.9 C 83 % 12.04 C
1382 29-05-2014 19:15:00 14.8 C 85 % 12.3 C
1383 29-05-2014 19:20:00 14.8 C 85 % 12.3 C
1384 29-05-2014 19:25:00 14.8 C 86 % 12.48 C
1385 29-05-2014 19:30:00 14.8 C 87 % 12.66 C
1386 29-05-2014 19:35:00 14.8 C 85 % 12.3 C
1387 29-05-2014 19:40:00 14.8 C 85 % 12.3 C
1388 29-05-2014 19:45:00 14.7 C 85 % 12.21 C
1389 29-05-2014 19:50:00 14.8 C 86 % 12.48 C
1390 29-05-2014 19:55:00 14.7 C 85 % 12.21 C
1391 29-05-2014 20:00:00 14.7 C 85 % 12.21 C
1392 29-05-2014 20:05:00 14.7 C 85 % 12.21 C
1393 29-05-2014 20:10:00 14.6 C 85 % 12.11 C
1394 29-05-2014 20:15:00 14.6 C 85 % 12.11 C
1395 29-05-2014 20:20:00 14.6 C 86 % 12.29 C
1396 29-05-2014 20:25:00 14.5 C 87 % 12.36 C
1397 29-05-2014 20:30:00 14.4 C 88 % 12.44 C
1398 29-05-2014 20:35:00 14.3 C 89 % 12.51 C
1399 29-05-2014 20:40:00 14.2 C 89 % 12.41 C
1400 29-05-2014 20:45:00 14.1 C 90 % 12.49 C
Sensor: Nr:Datum:Temp:Feuchte:Taupunkt:
Aussen-T/F 1401 29-05-2014 20:50:00 13.9 C 90 % 12.29 C
1402 29-05-2014 20:55:00 13.9 C 91 % 12.46 C
1403 29-05-2014 21:00:00 13.8 C 91 % 12.36 C
1404 29-05-2014 21:05:00 13.8 C 91 % 12.36 C
1405 29-05-2014 21:10:00 13.8 C 92 % 12.52 C
1406 29-05-2014 21:15:00 13.7 C 92 % 12.42 C
1407 29-05-2014 21:20:00 13.7 C 92 % 12.42 C
1408 29-05-2014 21:25:00 13.7 C 92 % 12.42 C
1409 29-05-2014 21:30:00 13.7 C 92 % 12.42 C
1410 29-05-2014 21:35:00 13.7 C 92 % 12.42 C
1411 29-05-2014 21:40:00 13.6 C 93 % 12.49 C
1412 29-05-2014 21:45:00 13.6 C 93 % 12.49 C
1413 29-05-2014 21:50:00 13.6 C 93 % 12.49 C
1414 29-05-2014 21:55:00 13.5 C 93 % 12.39 C
1415 29-05-2014 22:00:00 13.5 C 92 % 12.23 C
1416 29-05-2014 22:05:00 13.4 C 90 % 11.79 C
1417 29-05-2014 22:10:00 13.3 C 89 % 11.53 C
1418 29-05-2014 22:15:00 13.3 C 88 % 11.36 C
1419 29-05-2014 22:20:00 13.2 C 88 % 11.26 C
1420 29-05-2014 22:25:00 13.1 C 87 % 10.99 C
1421 29-05-2014 22:30:00 13 C 87 % 10.89 C
1422 29-05-2014 22:35:00 12.9 C 87 % 10.79 C
1423 29-05-2014 22:40:00 12.8 C 86 % 10.52 C
1424 29-05-2014 22:45:00 12.8 C 86 % 10.52 C
1425 29-05-2014 22:50:00 12.7 C 86 % 10.42 C
Sensor: Nr:Datum:Temp:Feuchte:Taupunkt:
Aussen-T/F 1426 29-05-2014 22:55:00 12.6 C 85 % 10.15 C
1427 29-05-2014 23:00:00 12.6 C 86 % 10.32 C
1428 29-05-2014 23:05:00 12.5 C 85 % 10.05 C
1429 29-05-2014 23:10:00 12.4 C 86 % 10.13 C
1430 29-05-2014 23:15:00 12.4 C 86 % 10.13 C
1431 29-05-2014 23:20:00 12.4 C 86 % 10.13 C
1432 29-05-2014 23:25:00 12.3 C 86 % 10.03 C
1433 29-05-2014 23:30:00 12.3 C 86 % 10.03 C
1434 29-05-2014 23:35:00 12.3 C 86 % 10.03 C
1435 29-05-2014 23:40:00 12.3 C 86 % 10.03 C
1436 29-05-2014 23:45:00 12.3 C 86 % 10.03 C
1437 29-05-2014 23:50:00 12.2 C 86 % 9.93 C
1438 29-05-2014 23:55:00 12.1 C 86 % 9.83 C
1439 30-05-2014 00:00:00 12.1 C 86 % 9.83 C
1440 30-05-2014 00:05:00 12.1 C 86 % 9.83 C
1441 30-05-2014 00:10:00 12 C 85 % 9.56 C
1442 30-05-2014 00:15:00 11.9 C 85 % 9.46 C
1443 30-05-2014 00:20:00 11.9 C 85 % 9.46 C
1444 30-05-2014 00:25:00 11.9 C 85 % 9.46 C
1445 30-05-2014 00:30:00 11.8 C 85 % 9.36 C
1446 30-05-2014 00:35:00 11.8 C 85 % 9.36 C
1447 30-05-2014 00:40:00 11.8 C 85 % 9.36 C
1448 30-05-2014 00:45:00 11.7 C 85 % 9.27 C
1449 30-05-2014 00:50:00 11.7 C 85 % 9.27 C
1450 30-05-2014 00:55:00 11.6 C 86 % 9.34 C
Sensor: Nr:Datum:Temp:Feuchte:Taupunkt:
Aussen-T/F 1451 30-05-2014 01:00:00 11.6 C 86 % 9.34 C
1452 30-05-2014 01:05:00 11.5 C 86 % 9.24 C
1453 30-05-2014 01:10:00 11.5 C 86 % 9.24 C
1454 30-05-2014 01:15:00 11.4 C 85 % 8.97 C
1455 30-05-2014 01:20:00 11.4 C 85 % 8.97 C
1456 30-05-2014 01:25:00 11.3 C 84 % 8.7 C
1457 30-05-2014 01:30:00 11.3 C 84 % 8.7 C
1458 30-05-2014 01:35:00 11.2 C 84 % 8.6 C
1459 30-05-2014 01:40:00 11.2 C 84 % 8.6 C
1460 30-05-2014 01:45:00 11.2 C 84 % 8.6 C
1461 30-05-2014 01:50:00 11.2 C 83 % 8.42 C
1462 30-05-2014 01:55:00 11.1 C 83 % 8.33 C
1463 30-05-2014 02:00:00 11.1 C 84 % 8.5 C
1464 30-05-2014 02:05:00 11.1 C 83 % 8.33 C
1465 30-05-2014 02:10:00 11.1 C 83 % 8.33 C
1466 30-05-2014 02:15:00 11.1 C 83 % 8.33 C
1467 30-05-2014 02:20:00 11.1 C 84 % 8.5 C
1468 30-05-2014 02:25:00 11.1 C 84 % 8.5 C
1469 30-05-2014 02:30:00 11.1 C 84 % 8.5 C
1470 30-05-2014 02:35:00 11.1 C 85 % 8.68 C
1471 30-05-2014 02:40:00 11.1 C 85 % 8.68 C
1472 30-05-2014 02:45:00 11.1 C 85 % 8.68 C
1473 30-05-2014 02:50:00 11.1 C 85 % 8.68 C
1474 30-05-2014 02:55:00 11.1 C 85 % 8.68 C
1475 30-05-2014 03:00:00 11.1 C 85 % 8.68 C
Sensor: Nr:Datum:Temp:Feuchte:Taupunkt:
Aussen-T/F 1476 30-05-2014 03:05:00 11 C 85 % 8.58 C
1477 30-05-2014 03:10:00 10.9 C 83 % 8.13 C
1478 30-05-2014 03:15:00 10.9 C 83 % 8.13 C
1479 30-05-2014 03:20:00 10.9 C 83 % 8.13 C
1480 30-05-2014 03:25:00 10.9 C 83 % 8.13 C
1481 30-05-2014 03:30:00 10.9 C 84 % 8.31 C
1482 30-05-2014 03:35:00 10.9 C 83 % 8.13 C
1483 30-05-2014 03:40:00 10.9 C 83 % 8.13 C
1484 30-05-2014 03:45:00 10.8 C 83 % 8.03 C
1485 30-05-2014 03:50:00 10.8 C 83 % 8.03 C
1486 30-05-2014 03:55:00 10.8 C 83 % 8.03 C
1487 30-05-2014 04:00:00 10.8 C 82 % 7.85 C
1488 30-05-2014 04:05:00 10.8 C 83 % 8.03 C
1489 30-05-2014 04:10:00 10.7 C 82 % 7.76 C
1490 30-05-2014 04:15:00 10.7 C 82 % 7.76 C
1491 30-05-2014 04:20:00 10.7 C 83 % 7.93 C
1492 30-05-2014 04:25:00 10.7 C 83 % 7.93 C
1493 30-05-2014 04:30:00 10.7 C 84 % 8.11 C
1494 30-05-2014 04:35:00 10.7 C 83 % 7.93 C
1495 30-05-2014 04:40:00 10.6 C 82 % 7.66 C
1496 30-05-2014 04:45:00 10.6 C 83 % 7.84 C
1497 30-05-2014 04:50:00 10.6 C 82 % 7.66 C
1498 30-05-2014 04:55:00 10.6 C 82 % 7.66 C
1499 30-05-2014 05:00:00 10.6 C 83 % 7.84 C
1500 30-05-2014 05:05:00 10.6 C 82 % 7.66 C
Sensor: Nr:Datum:Temp:Feuchte:Taupunkt:
Aussen-T/F 1501 30-05-2014 05:10:00 10.6 C 83 % 7.84 C
1502 30-05-2014 05:15:00 10.6 C 84 % 8.01 C
1503 30-05-2014 05:20:00 10.5 C 84 % 7.91 C
1504 30-05-2014 05:25:00 10.4 C 84 % 7.82 C
1505 30-05-2014 05:30:00 10.4 C 83 % 7.64 C
1506 30-05-2014 05:35:00 10.4 C 84 % 7.82 C
1507 30-05-2014 05:40:00 10.4 C 82 % 7.46 C
1508 30-05-2014 05:45:00 10.3 C 83 % 7.54 C
1509 30-05-2014 05:50:00 10.3 C 84 % 7.72 C
1510 30-05-2014 05:55:00 10.3 C 83 % 7.54 C
1511 30-05-2014 06:00:00 10.3 C 83 % 7.54 C
1512 30-05-2014 06:05:00 10.3 C 83 % 7.54 C
1513 30-05-2014 06:10:00 10.3 C 83 % 7.54 C
1514 30-05-2014 06:15:00 10.3 C 83 % 7.54 C
1515 30-05-2014 06:20:00 10.3 C 83 % 7.54 C
1516 30-05-2014 06:25:00 10.3 C 82 % 7.37 C
1517 30-05-2014 06:30:00 10.4 C 82 % 7.46 C
1518 30-05-2014 06:35:00 10.4 C 82 % 7.46 C
1519 30-05-2014 06:40:00 10.4 C 81 % 7.28 C
1520 30-05-2014 06:45:00 10.4 C 81 % 7.28 C
1521 30-05-2014 06:50:00 10.4 C 80 % 7.1 C
1522 30-05-2014 06:55:00 10.5 C 80 % 7.2 C
1523 30-05-2014 07:00:00 10.5 C 80 % 7.2 C
1524 30-05-2014 07:05:00 10.5 C 81 % 7.38 C
1525 30-05-2014 07:10:00 10.6 C 80 % 7.3 C
Sensor: Nr:Datum:Temp:Feuchte:Taupunkt:
Aussen-T/F 1526 30-05-2014 07:15:00 10.6 C 79 % 7.11 C
1527 30-05-2014 07:20:00 10.6 C 78 % 6.93 C
1528 30-05-2014 07:25:00 10.6 C 79 % 7.11 C
1529 30-05-2014 07:30:00 10.7 C 78 % 7.03 C
1530 30-05-2014 07:35:00 10.7 C 78 % 7.03 C
1531 30-05-2014 07:40:00 10.8 C 77 % 6.94 C
1532 30-05-2014 07:45:00 10.8 C 77 % 6.94 C
1533 30-05-2014 07:50:00 10.9 C 77 % 7.03 C
1534 30-05-2014 07:55:00 11 C 77 % 7.13 C
1535 30-05-2014 08:00:00 11.2 C 76 % 7.13 C
1536 30-05-2014 08:05:00 11.3 C 76 % 7.23 C
1537 30-05-2014 08:10:00 11.4 C 76 % 7.33 C
1538 30-05-2014 08:15:00 11.7 C 74 % 7.23 C
1539 30-05-2014 08:20:00 11.9 C 74 % 7.42 C
1540 30-05-2014 08:25:00 12 C 72 % 7.12 C
1541 30-05-2014 08:30:00 12.1 C 72 % 7.21 C
1542 30-05-2014 08:35:00 12.1 C 71 % 7.01 C
1543 30-05-2014 08:40:00 12 C 70 % 6.71 C
1544 30-05-2014 08:45:00 12.1 C 70 % 6.8 C
1545 30-05-2014 08:50:00 12.2 C 69 % 6.69 C
1546 30-05-2014 08:55:00 12.4 C 68 % 6.67 C
1547 30-05-2014 09:00:00 12.5 C 67 % 6.55 C
1548 30-05-2014 09:05:00 12.7 C 65 % 6.3 C
1549 30-05-2014 09:10:00 12.7 C 66 % 6.52 C
1550 30-05-2014 09:15:00 12.7 C 66 % 6.52 C
Sensor: Nr:Datum:Temp:Feuchte:Taupunkt:
Aussen-T/F 1551 30-05-2014 09:20:00 12.7 C 67 % 6.74 C
1552 30-05-2014 09:25:00 12.6 C 66 % 6.42 C
1553 30-05-2014 09:30:00 12.5 C 66 % 6.33 C
1554 30-05-2014 09:35:00 12.4 C 66 % 6.23 C
1555 30-05-2014 09:40:00 12.3 C 68 % 6.57 C
1556 30-05-2014 09:45:00 12.3 C 68 % 6.57 C
1557 30-05-2014 09:50:00 12.5 C 67 % 6.55 C
1558 30-05-2014 09:55:00 12.7 C 67 % 6.74 C
1559 30-05-2014 10:00:00 12.9 C 66 % 6.71 C
1560 30-05-2014 10:05:00 13.3 C 66 % 7.09 C
1561 30-05-2014 10:10:00 13.7 C 66 % 7.47 C
1562 30-05-2014 10:15:00 14 C 65 % 7.53 C
1563 30-05-2014 10:20:00 14.3 C 64 % 7.59 C
1564 30-05-2014 10:25:00 14.4 C 62 % 7.22 C
1565 30-05-2014 10:30:00 14.6 C 64 % 7.87 C
1566 30-05-2014 10:35:00 14.7 C 65 % 8.2 C
1567 30-05-2014 10:40:00 14.9 C 63 % 7.93 C
1568 30-05-2014 10:45:00 15.2 C 62 % 7.98 C
1569 30-05-2014 10:50:00 15.2 C 62 % 7.98 C
1570 30-05-2014 10:55:00 14.9 C 62 % 7.69 C
1571 30-05-2014 11:00:00 14.7 C 62 % 7.5 C
1572 30-05-2014 11:05:00 14.5 C 62 % 7.32 C
1573 30-05-2014 11:10:00 14.5 C 65 % 8.01 C
1574 30-05-2014 11:15:00 14.6 C 65 % 8.1 C
1575 30-05-2014 11:20:00 14.5 C 63 % 7.55 C
Sensor: Nr:Datum:Temp:Feuchte:Taupunkt:
Aussen-T/F 1576 30-05-2014 11:25:00 14.6 C 63 % 7.64 C
1577 30-05-2014 11:30:00 14.6 C 62 % 7.41 C
1578 30-05-2014 11:35:00 14.4 C 60 % 6.74 C
1579 30-05-2014 11:40:00 14.3 C 63 % 7.36 C
1580 30-05-2014 11:45:00 14.6 C 65 % 8.1 C
1581 30-05-2014 11:50:00 15.2 C 64 % 8.44 C
1582 30-05-2014 11:55:00 15.7 C 62 % 8.45 C
1583 30-05-2014 12:00:00 16.1 C 57 % 7.59 C
1584 30-05-2014 12:05:00 16 C 58 % 7.75 C
1585 30-05-2014 12:10:00 15.6 C 56 % 6.86 C
1586 30-05-2014 12:15:00 15.2 C 58 % 7 C
1587 30-05-2014 12:20:00 15.2 C 58 % 7 C
1588 30-05-2014 12:25:00 15.2 C 59 % 7.25 C
1589 30-05-2014 12:30:00 15.2 C 60 % 7.5 C
1590 30-05-2014 12:35:00 15.4 C 59 % 7.44 C
1591 30-05-2014 12:40:00 15.9 C 65 % 9.34 C
1592 30-05-2014 12:45:00 16.4 C 58 % 8.12 C
1593 30-05-2014 12:50:00 16.7 C 54 % 7.36 C
1594 30-05-2014 12:55:00 16.7 C 55 % 7.62 C
1595 30-05-2014 13:00:00 16.8 C 59 % 8.75 C
1596 30-05-2014 13:05:00 16.9 C 54 % 7.54 C
1597 30-05-2014 13:10:00 17.1 C 58 % 8.78 C
1598 30-05-2014 13:15:00 17.1 C 63 % 10.01 C
1599 30-05-2014 13:20:00 17.3 C 54 % 7.91 C
1600 30-05-2014 13:25:00 17.1 C 56 % 8.26 C
Sensor: Nr:Datum:Temp:Feuchte:Taupunkt:
Aussen-T/F 1601 30-05-2014 13:30:00 17.1 C 57 % 8.52 C
1602 30-05-2014 13:35:00 17.1 C 56 % 8.26 C
1603 30-05-2014 13:40:00 17.2 C 59 % 9.13 C
1604 30-05-2014 13:45:00 17.1 C 55 % 8 C
1605 30-05-2014 13:50:00 17.3 C 58 % 8.97 C
1606 30-05-2014 13:55:00 17.3 C 53 % 7.64 C
1607 30-05-2014 14:00:00 17.6 C 58 % 9.25 C
1608 30-05-2014 14:05:00 17.8 C 53 % 8.1 C
1609 30-05-2014 14:10:00 18 C 56 % 9.1 C
1610 30-05-2014 14:15:00 17.8 C 53 % 8.1 C
1611 30-05-2014 14:20:00 17.3 C 53 % 7.64 C
1612 30-05-2014 14:25:00 17 C 53 % 7.36 C
1613 30-05-2014 14:30:00 17.1 C 57 % 8.52 C
1614 30-05-2014 14:35:00 17.2 C 52 % 7.27 C
1615 30-05-2014 14:40:00 17.2 C 51 % 6.98 C
1616 30-05-2014 14:45:00 17.6 C 52 % 7.64 C
1617 30-05-2014 14:50:00 17.2 C 54 % 7.82 C
1618 30-05-2014 14:55:00 16.8 C 54 % 7.45 C
1619 30-05-2014 15:00:00 16.6 C 54 % 7.26 C
1620 30-05-2014 15:05:00 16.4 C 54 % 7.08 C
1621 30-05-2014 15:10:00 16.1 C 55 % 7.07 C
1622 30-05-2014 15:15:00 16 C 57 % 7.49 C
1623 30-05-2014 15:20:00 16.4 C 59 % 8.38 C
1624 30-05-2014 15:25:00 16.7 C 56 % 7.89 C
1625 30-05-2014 15:30:00 16.7 C 56 % 7.89 C
Sensor: Nr:Datum:Temp:Feuchte:Taupunkt:
Aussen-T/F 1626 30-05-2014 15:35:00 16.9 C 55 % 7.81 C
1627 30-05-2014 15:40:00 17.2 C 55 % 8.09 C
1628 30-05-2014 15:45:00 17.3 C 56 % 8.45 C
1629 30-05-2014 15:50:00 17.9 C 54 % 8.47 C
1630 30-05-2014 15:55:00 17.8 C 54 % 8.38 C
1631 30-05-2014 16:00:00 17.3 C 54 % 7.91 C
1632 30-05-2014 16:05:00 17 C 56 % 8.17 C
1633 30-05-2014 16:10:00 16.8 C 56 % 7.98 C
1634 30-05-2014 16:15:00 16.6 C 57 % 8.06 C
1635 30-05-2014 16:20:00 16.5 C 55 % 7.44 C
1636 30-05-2014 16:25:00 16.3 C 59 % 8.28 C
1637 30-05-2014 16:30:00 16.6 C 62 % 9.3 C
1638 30-05-2014 16:35:00 17.3 C 57 % 8.71 C
1639 30-05-2014 16:40:00 17.9 C 54 % 8.47 C
1640 30-05-2014 16:45:00 18 C 54 % 8.56 C
1641 30-05-2014 16:50:00 17.6 C 54 % 8.19 C
1642 30-05-2014 16:55:00 17.2 C 54 % 7.82 C
1643 30-05-2014 17:00:00 16.7 C 55 % 7.62 C
1644 30-05-2014 17:05:00 16.4 C 57 % 7.87 C
1645 30-05-2014 17:10:00 16.2 C 57 % 7.68 C
1646 30-05-2014 17:15:00 16.2 C 58 % 7.94 C
1647 30-05-2014 17:20:00 16.1 C 58 % 7.84 C
1648 30-05-2014 17:25:00 16.1 C 61 % 8.58 C
1649 30-05-2014 17:30:00 16.1 C 59 % 8.09 C
1650 30-05-2014 17:35:00 15.9 C 59 % 7.91 C
Sensor: Nr:Datum:Temp:Feuchte:Taupunkt:
Aussen-T/F 1651 30-05-2014 17:40:00 15.7 C 58 % 7.47 C
1652 30-05-2014 17:45:00 15.9 C 62 % 8.64 C
1653 30-05-2014 17:50:00 16.3 C 56 % 7.52 C
1654 30-05-2014 17:55:00 16.4 C 58 % 8.12 C
1655 30-05-2014 18:00:00 16.7 C 56 % 7.89 C
1656 30-05-2014 18:05:00 16.8 C 55 % 7.72 C
1657 30-05-2014 18:10:00 16.9 C 56 % 8.07 C
1658 30-05-2014 18:15:00 16.8 C 56 % 7.98 C
1659 30-05-2014 18:20:00 16.6 C 55 % 7.53 C
1660 30-05-2014 18:25:00 16.4 C 56 % 7.61 C
1661 30-05-2014 18:30:00 16.1 C 56 % 7.33 C
1662 30-05-2014 18:35:00 15.9 C 58 % 7.66 C
1663 30-05-2014 18:40:00 16 C 59 % 8 C
1664 30-05-2014 18:45:00 16.3 C 58 % 8.03 C
1665 30-05-2014 18:50:00 16.7 C 58 % 8.4 C
1666 30-05-2014 18:55:00 17 C 57 % 8.43 C
1667 30-05-2014 19:00:00 16.7 C 56 % 7.89 C
1668 30-05-2014 19:05:00 16.2 C 57 % 7.68 C
1669 30-05-2014 19:10:00 15.6 C 57 % 7.12 C
1670 30-05-2014 19:15:00 15.3 C 60 % 7.59 C
1671 30-05-2014 19:20:00 15.1 C 60 % 7.4 C
1672 30-05-2014 19:25:00 15 C 61 % 7.55 C
1673 30-05-2014 19:30:00 15.1 C 61 % 7.64 C
1674 30-05-2014 19:35:00 15.1 C 60 % 7.4 C
1675 30-05-2014 19:40:00 15 C 60 % 7.31 C
Sensor: Nr:Datum:Temp:Feuchte:Taupunkt:
Aussen-T/F 1676 30-05-2014 19:45:00 14.9 C 60 % 7.21 C
1677 30-05-2014 19:50:00 14.8 C 61 % 7.36 C
1678 30-05-2014 19:55:00 14.7 C 60 % 7.03 C
1679 30-05-2014 20:00:00 14.6 C 61 % 7.17 C
1680 30-05-2014 20:05:00 14.6 C 61 % 7.17 C
1681 30-05-2014 20:10:00 14.6 C 60 % 6.93 C
1682 30-05-2014 20:15:00 14.6 C 62 % 7.41 C
1683 30-05-2014 20:20:00 14.4 C 59 % 6.5 C
1684 30-05-2014 20:25:00 14.4 C 60 % 6.74 C
1685 30-05-2014 20:30:00 14.3 C 59 % 6.41 C
1686 30-05-2014 20:35:00 14.2 C 66 % 7.95 C
1687 30-05-2014 20:40:00 14.1 C 61 % 6.7 C
1688 30-05-2014 20:45:00 14 C 64 % 7.31 C
1689 30-05-2014 20:50:00 13.8 C 69 % 8.22 C
1690 30-05-2014 20:55:00 13.6 C 72 % 8.65 C
1691 30-05-2014 21:00:00 13.2 C 74 % 8.67 C
1692 30-05-2014 21:05:00 12.8 C 75 % 8.48 C
1693 30-05-2014 21:10:00 12.4 C 75 % 8.1 C
1694 30-05-2014 21:15:00 12.1 C 76 % 8 C
1695 30-05-2014 21:20:00 11.7 C 77 % 7.81 C
1696 30-05-2014 21:25:00 11.5 C 77 % 7.61 C
1697 30-05-2014 21:30:00 11.3 C 77 % 7.42 C
1698 30-05-2014 21:35:00 11.1 C 77 % 7.23 C
1699 30-05-2014 21:40:00 10.9 C 77 % 7.03 C
1700 30-05-2014 21:45:00 10.7 C 78 % 7.03 C
Sensor: Nr:Datum:Temp:Feuchte:Taupunkt:
Aussen-T/F 1701 30-05-2014 21:50:00 10.6 C 77 % 6.74 C
1702 30-05-2014 21:55:00 10.5 C 78 % 6.83 C
1703 30-05-2014 22:00:00 10.4 C 78 % 6.74 C
1704 30-05-2014 22:05:00 10.3 C 79 % 6.82 C
1705 30-05-2014 22:10:00 10.2 C 80 % 6.91 C
1706 30-05-2014 22:15:00 10.1 C 81 % 6.99 C
1707 30-05-2014 22:20:00 10.1 C 81 % 6.99 C
1708 30-05-2014 22:25:00 10 C 81 % 6.89 C
1709 30-05-2014 22:30:00 9.9 C 81 % 6.8 C
1710 30-05-2014 22:35:00 9.8 C 82 % 6.88 C
1711 30-05-2014 22:40:00 9.7 C 82 % 6.78 C
1712 30-05-2014 22:45:00 9.6 C 84 % 7.03 C
1713 30-05-2014 22:50:00 9.5 C 84 % 6.94 C
1714 30-05-2014 22:55:00 9.4 C 84 % 6.84 C
1715 30-05-2014 23:00:00 9.4 C 84 % 6.84 C
1716 30-05-2014 23:05:00 9.3 C 84 % 6.74 C
1717 30-05-2014 23:10:00 9.2 C 84 % 6.64 C
1718 30-05-2014 23:15:00 9.1 C 85 % 6.72 C
1719 30-05-2014 23:20:00 8.9 C 85 % 6.52 C
1720 30-05-2014 23:25:00 8.8 C 85 % 6.42 C
1721 30-05-2014 23:30:00 8.7 C 86 % 6.49 C
1722 30-05-2014 23:35:00 8.6 C 86 % 6.39 C
1723 30-05-2014 23:40:00 8.5 C 86 % 6.3 C
1724 30-05-2014 23:45:00 8.4 C 87 % 6.37 C
1725 30-05-2014 23:50:00 8.4 C 87 % 6.37 C
Sensor: Nr:Datum:Temp:Feuchte:Taupunkt:
Aussen-T/F 1726 30-05-2014 23:55:00 8.3 C 87 % 6.27 C

Legende:
   Min
   Max


Maximal/Minimal-Werte vom 24.05.2014 - 30.05.2014

Sensor Min Max Avg
Temp
(Aussen-T/F)
7.4 °C
25-05-2014  05:50:00
24.8 °C
25-05-2014  16:55:00
14.76 °C
Feuchte
(Aussen-T/F)
39 %
25-05-2014  16:50:00
100 %
27-05-2014  14:10:00
81.21 %
Taupunkt
(Aussen-T/F)
6.23 C
30-05-2014  09:35:00
18.4 C
27-05-2014  14:10:00
11.25 C

Die Daten stammen von einer Davis Vantage Pro 2 Wetter-Station und werden unter Linux mit der Software wview2wettercgi und aufbereitet. Alle Angaben erfolgen ohne Gewähr für ihre Vollständigkeit oder Richtigkeit.
Kontakt: Rainer Krienke krienke@uni-koblenz.de . Meine Webseiten an der Uni Koblenz oder privat.
Version: $Revision: 0.78 $